M I D A S
Marine Information and Data Acquisition System
Tripno 454 of the Zeeleeuw from 2003-03-24 07:33:44 to 2003-03-24 16:04:33
Back to CruiseResearch ActivitiesStationsMapUnderway DataData graphs

EquipmentUnitsComment
TimeDGPSUTC
LatitudeDGPSDM.mWGS84
LongitudeDGPSDM.mWGS84
TemperatureSBE03/SBE38deg celciusITS90
ConductivitySBE21S/mITS90
SalinitySBE21 Practical Salinity Units
ChlorophylAChelsea fluorimeterg/lCalibrated in Aceton
Missing or incorrect values are displayed as -999
Sea surface data collected by the RV Zeeleeuw from 2003-03-24 07:33:44 to 2003-03-24 16:04:33
                                                                                    Next 1000 lines
Time Latitude Longitude Temperature Conductivity Salinity ChlorophylA
2003-03-24 07:33:52 51°13.597 2°56.105 13.977862 3.456128 21.912895 -0.882377
2003-03-24 07:33:57 51°13.597 2°56.105 13.978083 3.456023 21.912478 -0.848668
2003-03-24 07:34:02 51°13.597 2°56.105 13.977862 3.456023 21.912798 -0.848668
2003-03-24 07:34:07 51°13.598 2°56.105 13.978436 3.455917 21.912381 -0.848668
2003-03-24 07:34:12 51°13.599 2°56.106 13.976758 3.455917 21.912381 -0.882377
2003-03-24 07:34:17 51°13.6 2°56.106 13.976758 3.455917 21.912381 -0.882377
2003-03-24 07:34:21 51°13.599 2°56.105 13.96916 3.456023 21.91344 -0.848668
2003-03-24 07:34:27 51°13.598 2°56.105 13.973887 3.455917 21.912061 -0.848668
2003-03-24 07:34:32 51°13.598 2°56.105 13.972075 3.455917 21.91174 -0.848668
2003-03-24 07:34:37 51°13.598 2°56.105 13.971899 3.455812 21.911002 -0.848668
2003-03-24 07:34:41 51°13.597 2°56.105 13.971678 3.455812 21.911323 -0.848668
2003-03-24 07:34:47 51°13.598 2°56.105 13.971678 3.455812 21.911323 -0.848668
2003-03-24 07:34:51 51°13.598 2°56.105 13.971634 3.455812 21.911644 -0.848668
2003-03-24 07:34:57 51°13.598 2°56.105 13.971413 3.455707 21.911868 -0.848668
2003-03-24 07:35:01 51°13.598 2°56.105 13.971855 3.455707 21.912831 -0.848668
2003-03-24 07:35:07 51°13.599 2°56.105 13.97265 3.455707 21.913473 -0.848668
2003-03-24 07:35:11 51°13.598 2°56.103 13.973312 3.455812 21.914532 -0.814958
2003-03-24 07:35:17 51°13.597 2°56.103 13.973312 3.455812 21.914532 -0.814958
2003-03-24 07:35:21 51°13.597 2°56.103 13.973798 3.455707 21.915078 -0.882377
2003-03-24 07:35:27 51°13.597 2°56.102 13.975653 3.455601 21.914661 -0.882377
2003-03-24 07:35:31 51°13.597 2°56.102 13.995262 3.455707 21.915078 -0.814958
2003-03-24 07:35:36 51°13.597 2°56.1 13.98855 3.455601 21.914661 -0.848668
2003-03-24 07:35:41 51°13.598 2°56.098 13.98643 3.455496 21.913602 -0.848668
2003-03-24 07:35:47 51°13.599 2°56.094 13.98643 3.455496 21.913602 -0.848668
2003-03-24 07:35:52 51°13.601 2°56.09 13.997823 3.455496 21.91296 -0.848668
2003-03-24 07:35:57 51°13.602 2°56.085 13.993584 3.455496 21.912639 -0.882377
2003-03-24 07:36:03 51°13.604 2°56.079 13.99089 3.455391 21.911901 -0.848668
2003-03-24 07:36:08 51°13.606 2°56.072 13.991906 3.455391 21.911901 -0.848668
2003-03-24 07:36:13 51°13.607 2°56.066 13.990449 3.455391 21.912222 -0.848668
2003-03-24 07:36:18 51°13.608 2°56.059 13.990449 3.455391 21.912222 -0.848668
2003-03-24 07:36:23 51°13.61 2°56.053 13.990007 3.455285 21.912126 -0.848668
2003-03-24 07:36:28 51°13.612 2°56.045 13.987755 3.455285 21.913089 -0.814958
2003-03-24 07:36:33 51°13.613 2°56.038 13.982632 3.455286 21.91341 -0.848668
2003-03-24 07:36:38 51°13.615 2°56.031 13.970176 3.455286 21.915015 -0.848668
2003-03-24 07:36:43 51°13.616 2°56.026 13.967393 3.455286 21.9163 -0.814958
2003-03-24 07:36:47 51°13.616 2°56.023 13.967393 3.455286 21.9163 -0.814958
2003-03-24 07:36:51 51°13.617 2°56.021 13.967746 3.45518 21.915562 -0.848668
2003-03-24 07:36:57 51°13.617 2°56.018 13.968674 3.455075 21.914502 -0.848668
2003-03-24 07:37:01 51°13.617 2°56.016 13.985547 3.455075 21.913539 -0.882377
2003-03-24 07:37:07 51°13.617 2°56.013 13.983029 3.455075 21.912897 -0.848668
2003-03-24 07:37:12 51°13.617 2°56.01 13.984089 3.454969 21.911517 -0.848668
2003-03-24 07:37:17 51°13.618 2°56.007 13.984089 3.454969 21.911517 -0.848668
2003-03-24 07:37:22 51°13.618 2°56.004 13.984796 3.454969 21.910875 -0.848668
2003-03-24 07:37:27 51°13.619 2°56 13.98855 3.454969 21.911517 -0.848668
2003-03-24 07:37:32 51°13.621 2°55.995 13.986695 3.454864 21.911421 -0.848668
2003-03-24 07:37:37 51°13.624 2°55.991 13.985767 3.454864 21.912705 -0.848668
2003-03-24 07:37:43 51°13.628 2°55.985 13.985458 3.454864 21.913668 -0.882377
2003-03-24 07:37:48 51°13.63 2°55.978 13.985458 3.454864 21.913668 -0.882377
2003-03-24 07:37:53 51°13.632 2°55.97 13.991243 3.454759 21.913893 -0.848668
2003-03-24 07:37:58 51°13.635 2°55.963 13.986474 3.454759 21.914536 -0.848668
2003-03-24 07:38:03 51°13.637 2°55.955 13.985237 3.454759 21.914536 -0.814958
2003-03-24 07:38:08 51°13.638 2°55.946 13.984752 3.454654 21.913797 -0.814958
2003-03-24 07:38:13 51°13.641 2°55.937 13.983913 3.454654 21.913797 -0.848668
2003-03-24 07:38:18 51°13.644 2°55.928 13.983913 3.454654 21.913797 -0.848668
2003-03-24 07:38:23 51°13.647 2°55.92 13.984575 3.454548 21.913059 -0.848668
2003-03-24 07:38:29 51°13.651 2°55.909 13.983338 3.454654 21.913797 -0.848668
2003-03-24 07:38:33 51°13.655 2°55.902 13.983118 3.454654 21.914119 -0.848668
2003-03-24 07:38:38 51°13.659 2°55.892 13.982897 3.454759 21.915499 -0.848668
2003-03-24 07:38:43 51°13.663 2°55.883 13.982455 3.454654 21.914761 -0.848668
2003-03-24 07:38:48 51°13.667 2°55.874 13.982455 3.454654 21.914761 -0.848668
2003-03-24 07:38:53 51°13.67 2°55.865 13.982234 3.454548 21.914344 -0.848668
2003-03-24 07:38:58 51°13.673 2°55.855 13.982676 3.454548 21.914986 -0.848668
2003-03-24 07:39:03 51°13.675 2°55.846 13.983073 3.454548 21.914986 -0.814958
2003-03-24 07:39:09 51°13.677 2°55.834 13.983471 3.454548 21.915307 -0.882377
2003-03-24 07:39:13 51°13.679 2°55.826 13.98431 3.454338 21.914152 -0.848668
2003-03-24 07:39:17 51°13.681 2°55.819 13.98431 3.454338 21.914152 -0.848668
2003-03-24 07:39:23 51°13.684 2°55.807 13.984884 3.454338 21.914152 -0.814958
2003-03-24 07:39:28 51°13.687 2°55.798 13.984443 3.454338 21.913831 -0.848668
2003-03-24 07:39:33 51°13.689 2°55.789 13.983868 3.454232 21.913735 -0.848668
2003-03-24 07:39:38 51°13.692 2°55.781 13.984133 3.454232 21.913735 -0.882377
2003-03-24 07:39:43 51°13.692 2°55.772 13.984089 3.454127 21.913318 -0.814958
2003-03-24 07:39:47 51°13.692 2°55.765 13.984089 3.454127 21.913318 -0.814958
2003-03-24 07:39:52 51°13.693 2°55.756 -999 3.454022 21.9129 -0.848668
2003-03-24 07:39:57 51°13.694 2°55.748 -999 3.454127 21.91396 -0.848668
2003-03-24 07:40:01 51°13.695 2°55.743 -999 3.454022 21.913543 -0.848668
2003-03-24 07:40:07 51°13.695 2°55.737 -999 3.454022 21.913543 -0.848668
2003-03-24 07:40:12 51°13.696 2°55.734 -999 3.453916 21.913447 -0.848668
2003-03-24 07:40:17 51°13.696 2°55.732 -999 3.453916 21.913447 -0.848668
2003-03-24 07:40:22 51°13.696 2°55.73 -999 3.453811 21.912709 -0.814958
2003-03-24 07:40:27 51°13.696 2°55.729 -999 3.453916 21.913768 -0.848668
2003-03-24 07:40:30 51°13.697 2°55.729 -999 3.453916 21.914089 -0.848668
2003-03-24 07:40:37 51°13.699 2°55.729 -999 3.453811 21.913351 -0.848668
2003-03-24 07:40:42 51°13.7 2°55.729 -999 3.453811 21.913672 -0.848668
2003-03-24 07:40:47 51°13.702 2°55.73 -999 3.453811 21.913672 -0.848668
2003-03-24 07:40:52 51°13.703 2°55.731 -999 3.453706 21.913576 -0.848668
2003-03-24 07:40:57 51°13.705 2°55.732 -999 3.4536 21.912838 -0.848668
2003-03-24 07:41:01 51°13.707 2°55.733 -999 3.453706 21.914219 -0.848668
2003-03-24 07:41:07 51°13.71 2°55.734 -999 3.4536 21.913159 -0.848668
2003-03-24 07:41:12 51°13.713 2°55.734 -999 3.453495 21.913063 -0.848668
2003-03-24 07:41:17 51°13.716 2°55.734 -999 3.453495 21.913063 -0.848668
2003-03-24 07:41:21 51°13.719 2°55.731 -999 3.4536 21.914123 -0.848668
2003-03-24 07:41:27 51°13.724 2°55.727 -999 3.45339 21.912646 -0.882377
2003-03-24 07:41:32 51°13.728 2°55.724 -999 3.45339 21.912967 -0.848668
2003-03-24 07:41:37 51°13.732 2°55.722 -999 3.45339 21.912967 -0.848668
2003-03-24 07:41:41 51°13.736 2°55.721 -999 3.453284 21.912871 -0.848668
2003-03-24 07:41:47 51°13.741 2°55.717 -999 3.453284 21.912871 -0.848668
2003-03-24 07:41:51 51°13.745 2°55.715 -999 3.453284 21.912871 -0.848668
2003-03-24 07:41:57 51°13.75 2°55.712 -999 3.453284 21.913193 -0.848668
2003-03-24 07:42:02 51°13.754 2°55.708 -999 3.453179 21.912133 -0.848668
2003-03-24 07:42:07 51°13.758 2°55.703 -999 3.453179 21.912454 -0.814958
2003-03-24 07:42:12 51°13.763 2°55.698 -999 3.453179 21.912133 -0.848668
2003-03-24 07:42:17 51°13.767 2°55.694 -999 3.453179 21.912133 -0.848668
2003-03-24 07:42:20 51°13.77 2°55.691 -999 3.453074 21.911716 -0.848668
2003-03-24 07:42:27 51°13.777 2°55.684 -999 3.453074 21.912037 -0.848668
2003-03-24 07:42:31 51°13.781 2°55.68 -999 3.453074 21.912358 -0.848668
2003-03-24 07:42:37 51°13.789 2°55.673 -999 3.453074 21.913001 -0.848668
2003-03-24 07:42:41 51°13.794 2°55.669 -999 3.452968 21.912584 -0.848668
2003-03-24 07:42:47 51°13.802 2°55.662 -999 3.452968 21.912584 -0.848668
2003-03-24 07:42:51 51°13.808 2°55.657 -999 3.453074 21.913322 -0.848668
2003-03-24 07:42:57 51°13.817 2°55.65 -999 3.452968 21.912584 -0.848668
2003-03-24 07:43:02 51°13.825 2°55.644 -999 3.452863 21.912488 -0.848668
2003-03-24 07:43:07 51°13.832 2°55.638 -999 3.452863 21.912809 -0.848668
2003-03-24 07:43:11 51°13.838 2°55.633 -999 3.452863 21.91313 -0.814958
2003-03-24 07:43:17 51°13.848 2°55.625 -999 3.452863 21.91313 -0.814958
2003-03-24 07:43:21 51°13.854 2°55.619 -999 3.452758 21.913034 -0.848668
2003-03-24 07:43:27 51°13.864 2°55.611 -999 3.452758 21.913356 -0.848668
2003-03-24 07:43:32 51°13.873 2°55.605 -999 3.452758 21.913677 -0.848668
2003-03-24 07:43:37 51°13.882 2°55.598 -999 3.452652 21.91326 -0.848668
2003-03-24 07:43:41 51°13.888 2°55.593 -999 3.452652 21.91326 -0.848668
2003-03-24 07:43:47 51°13.898 2°55.584 -999 3.452652 21.91326 -0.848668
2003-03-24 07:43:52 51°13.907 2°55.577 -999 3.452547 21.912521 -0.848668
2003-03-24 07:43:57 51°13.916 2°55.571 -999 3.452547 21.913164 -0.848668
2003-03-24 07:44:01 51°13.923 2°55.565 -999 3.452547 21.913485 -0.848668
2003-03-24 07:44:07 51°13.934 2°55.557 -999 3.452442 21.912425 -0.848668
2003-03-24 07:44:12 51°13.944 2°55.55 -999 3.452442 21.912747 -0.814958
2003-03-24 07:44:17 51°13.954 2°55.544 -999 3.452442 21.912747 -0.814958
2003-03-24 07:44:21 51°13.961 2°55.538 -999 3.452336 21.912008 -0.848668
2003-03-24 07:44:27 51°13.973 2°55.531 -999 3.452442 21.91339 -0.848668
2003-03-24 07:44:32 51°13.983 2°55.524 -999 3.452336 21.912972 -0.814958
2003-03-24 07:44:37 51°13.992 2°55.518 -999 3.452336 21.912972 -0.848668
2003-03-24 07:44:41 51°14 2°55.513 -999 3.452336 21.913294 -0.848668
2003-03-24 07:44:47 51°14.012 2°55.504 -999 3.452336 21.913294 -0.848668
2003-03-24 07:44:51 51°14.019 2°55.499 -999 3.452231 21.912876 -0.848668
2003-03-24 07:44:57 51°14.031 2°55.491 -999 3.452126 21.912459 -0.848668
2003-03-24 07:45:02 51°14.04 2°55.484 -999 3.452126 21.912459 -0.848668
2003-03-24 07:45:06 51°14.048 2°55.478 -999 3.452126 21.913102 -0.848668
2003-03-24 07:45:12 51°14.059 2°55.469 -999 3.452126 21.913102 -0.848668
2003-03-24 07:45:17 51°14.068 2°55.462 -999 3.452126 21.913102 -0.848668
2003-03-24 07:45:21 51°14.076 2°55.456 -999 3.452021 21.912685 -0.848668
2003-03-24 07:45:27 51°14.087 2°55.447 -999 3.451915 21.911946 -0.848668
2003-03-24 07:45:32 51°14.096 2°55.44 -999 3.451915 21.912267 -0.848668
2003-03-24 07:45:37 51°14.106 2°55.433 -999 3.451915 21.912589 -0.848668
2003-03-24 07:45:41 51°14.114 2°55.427 -999 3.451915 21.912589 -0.848668
2003-03-24 07:45:47 51°14.127 2°55.419 -999 3.451915 21.912589 -0.848668
2003-03-24 07:45:51 51°14.135 2°55.413 -999 3.451915 21.91291 -0.848668
2003-03-24 07:45:57 51°14.148 2°55.402 -999 3.45181 21.912171 -0.848668
2003-03-24 07:46:01 51°14.156 2°55.395 -999 3.45181 21.913136 -0.848668
2003-03-24 07:46:07 51°14.169 2°55.383 -999 3.45181 21.913136 -0.848668
2003-03-24 07:46:11 51°14.177 2°55.375 -999 3.45181 21.913136 -0.848668
2003-03-24 07:46:17 51°14.19 2°55.362 -999 3.45181 21.913136 -0.848668
2003-03-24 07:46:21 51°14.199 2°55.352 -999 3.451705 21.912718 -0.848668
2003-03-24 07:46:27 51°14.211 2°55.336 -999 3.451705 21.912718 -0.848668
2003-03-24 07:46:32 51°14.221 2°55.322 -999 3.451599 21.912623 -0.848668
2003-03-24 07:46:37 51°14.23 2°55.308 -999 3.451599 21.912944 -0.814958
2003-03-24 07:46:41 51°14.238 2°55.296 -999 3.451494 21.912205 -0.848668
2003-03-24 07:46:47 51°14.25 2°55.277 -999 3.451494 21.912205 -0.848668
2003-03-24 07:46:51 51°14.258 2°55.265 -999 3.451494 21.912205 -0.814958
2003-03-24 07:46:57 51°14.269 2°55.245 -999 3.451494 21.912527 -0.848668
2003-03-24 07:47:02 51°14.279 2°55.229 -999 3.451389 21.912109 -0.848668
2003-03-24 07:47:07 51°14.288 2°55.212 -999 3.451389 21.912431 -0.848668
2003-03-24 07:47:12 51°14.297 2°55.196 -999 3.451389 21.912109 -0.848668
2003-03-24 07:47:17 51°14.306 2°55.179 -999 3.451389 21.912109 -0.848668
2003-03-24 07:47:22 51°14.315 2°55.162 -999 3.451389 21.912752 -0.848668
2003-03-24 07:47:27 51°14.324 2°55.145 -999 3.451389 21.913074 -0.848668
2003-03-24 07:47:31 51°14.331 2°55.131 -999 3.451283 21.912657 -0.814958
2003-03-24 07:47:37 51°14.342 2°55.11 -999 3.451283 21.912978 -0.848668
2003-03-24 07:47:41 51°14.349 2°55.096 -999 3.451283 21.9133 -0.848668
2003-03-24 07:47:47 51°14.36 2°55.075 -999 3.451283 21.9133 -0.848668
2003-03-24 07:47:52 51°14.369 2°55.057 -999 3.451178 21.912561 -0.848668
2003-03-24 07:47:57 51°14.378 2°55.04 -999 3.451178 21.912882 -0.848668
2003-03-24 07:48:01 51°14.386 2°55.025 -999 3.451178 21.913204 -0.848668
2003-03-24 07:48:07 51°14.397 2°55.003 -999 3.451073 21.912786 -0.848668
2003-03-24 07:48:11 51°14.405 2°54.988 -999 3.451073 21.913108 -0.848668
2003-03-24 07:48:17 51°14.416 2°54.966 -999 3.451073 21.913108 -0.848668
2003-03-24 07:48:22 51°14.427 2°54.949 -999 3.450967 21.912369 -0.848668
2003-03-24 07:48:27 51°14.439 2°54.932 -999 3.450967 21.912369 -0.848668
2003-03-24 07:48:32 51°14.451 2°54.917 -999 3.450967 21.912369 -0.848668
2003-03-24 07:48:37 51°14.463 2°54.902 -999 3.450967 21.912691 -0.848668
2003-03-24 07:48:41 51°14.474 2°54.89 -999 3.450862 21.911952 -0.882377
2003-03-24 07:48:47 51°14.49 2°54.873 -999 3.450862 21.911952 -0.882377
2003-03-24 07:48:52 51°14.504 2°54.859 -999 3.450757 21.911534 -0.848668
2003-03-24 07:48:57 51°14.518 2°54.845 -999 3.450862 21.912595 -0.882377
2003-03-24 07:49:01 51°14.529 2°54.834 -999 3.450757 21.912499 -0.848668
2003-03-24 07:49:07 51°14.546 2°54.817 -999 3.450651 21.91176 -0.848668
2003-03-24 07:49:12 51°14.56 2°54.803 -999 3.450757 21.913142 -0.848668
2003-03-24 07:49:17 51°14.574 2°54.788 -999 3.450757 21.913142 -0.848668
2003-03-24 07:49:21 51°14.586 2°54.777 -999 3.450757 21.913142 -0.848668
2003-03-24 07:49:27 51°14.603 2°54.76 -999 3.450651 21.912403 -0.848668
2003-03-24 07:49:32 51°14.618 2°54.746 -999 3.450757 21.913786 -0.848668
2003-03-24 07:49:37 51°14.632 2°54.733 -999 3.450546 21.912629 -0.848668
2003-03-24 07:49:42 51°14.647 2°54.72 -999 3.450546 21.912951 -0.814958
2003-03-24 07:49:47 51°14.662 2°54.707 -999 3.450546 21.912951 -0.814958
2003-03-24 07:49:52 51°14.677 2°54.694 -999 3.450651 21.914333 -0.848668
2003-03-24 07:49:57 51°14.692 2°54.682 -999 3.450546 21.913916 -0.848668
2003-03-24 07:50:01 51°14.704 2°54.672 -999 3.450441 21.913177 -0.848668
2003-03-24 07:50:07 51°14.723 2°54.658 -999 3.450441 21.913498 -0.848668
2003-03-24 07:50:12 51°14.738 2°54.645 -999 3.450441 21.91382 -0.848668
2003-03-24 07:50:17 51°14.754 2°54.633 -999 3.450441 21.91382 -0.848668
2003-03-24 07:50:22 51°14.769 2°54.621 -999 3.450335 21.912759 -0.848668
2003-03-24 07:50:27 51°14.785 2°54.608 -999 3.450335 21.913081 -0.848668
2003-03-24 07:50:32 51°14.801 2°54.595 -999 3.45023 21.912342 -0.848668
2003-03-24 07:50:37 51°14.817 2°54.583 -999 3.450335 21.913402 -0.848668
2003-03-24 07:50:41 51°14.829 2°54.573 -999 3.45023 21.912663 -0.848668
2003-03-24 07:50:47 51°14.848 2°54.558 -999 3.45023 21.912663 -0.848668
2003-03-24 07:50:52 51°14.864 2°54.546 -999 3.45023 21.912985 -0.848668
2003-03-24 07:50:57 51°14.88 2°54.533 -999 3.45023 21.913307 -0.814958
2003-03-24 07:51:01 51°14.893 2°54.523 -999 3.450125 21.912889 -0.882377
2003-03-24 07:51:07 51°14.913 2°54.509 -999 3.450125 21.913211 -0.848668
2003-03-24 07:51:11 51°14.926 2°54.499 -999 3.449914 21.912376 -0.848668
2003-03-24 07:51:17 51°14.945 2°54.483 -999 3.449914 21.912376 -0.848668
2003-03-24 07:51:22 51°14.961 2°54.47 -999 3.449914 21.912376 -0.848668
2003-03-24 07:51:27 51°14.977 2°54.457 -999 3.449914 21.913019 -0.848668
2003-03-24 07:51:32 51°14.992 2°54.444 -999 3.450019 21.913759 -0.814958
2003-03-24 07:51:37 51°15.008 2°54.431 -999 3.449809 21.912602 -0.848668
2003-03-24 07:51:41 51°15.021 2°54.421 -999 3.449809 21.912602 -0.814958
2003-03-24 07:51:47 51°15.04 2°54.406 -999 3.449809 21.912602 -0.814958
2003-03-24 07:51:52 51°15.056 2°54.394 -999 3.449809 21.912602 -0.848668
2003-03-24 07:51:57 51°15.072 2°54.381 -999 3.449703 21.911863 -0.848668
2003-03-24 07:52:02 51°15.088 2°54.368 -999 3.449703 21.911863 -0.848668
2003-03-24 07:52:07 51°15.104 2°54.356 -999 3.449598 21.911767 -0.848668
2003-03-24 07:52:11 51°15.117 2°54.345 -999 3.449703 21.912828 -0.848668
2003-03-24 07:52:17 51°15.136 2°54.33 -999 3.449703 21.912828 -0.848668
2003-03-24 07:52:21 51°15.148 2°54.319 -999 3.449703 21.91315 -0.848668
2003-03-24 07:52:27 51°15.167 2°54.304 -999 3.449598 21.912732 -0.814958
2003-03-24 07:52:32 51°15.183 2°54.291 -999 3.449493 21.912636 -0.848668
2003-03-24 07:52:37 51°15.198 2°54.278 -999 3.449493 21.912958 -0.814958
2003-03-24 07:52:41 51°15.211 2°54.268 -999 3.449493 21.912958 -0.882377
2003-03-24 07:52:47 51°15.23 2°54.252 -999 3.449493 21.912958 -0.882377
2003-03-24 07:52:51 51°15.243 2°54.241 -999 3.449493 21.912958 -0.882377
2003-03-24 07:52:57 51°15.263 2°54.226 -999 3.449387 21.912541 -0.848668
2003-03-24 07:53:01 51°15.276 2°54.215 -999 3.449387 21.912541 -0.814958
2003-03-24 07:53:07 51°15.296 2°54.199 -999 3.449387 21.912862 -0.848668
2003-03-24 07:53:11 51°15.31 2°54.189 -999 3.449388 21.913506 -0.848668
2003-03-24 07:53:17 51°15.33 2°54.173 -999 3.449388 21.913506 -0.848668
2003-03-24 07:53:21 51°15.344 2°54.162 -999 3.449282 21.913089 -0.814958
2003-03-24 07:53:27 51°15.364 2°54.146 -999 3.449282 21.913089 -0.848668
2003-03-24 07:53:31 51°15.378 2°54.135 -999 3.449177 21.912671 -0.882377
2003-03-24 07:53:36 51°15.395 2°54.121 -999 3.449177 21.912993 -0.848668
2003-03-24 07:53:41 51°15.413 2°54.108 -999 3.449177 21.912993 -0.848668
2003-03-24 07:53:47 51°15.434 2°54.092 -999 3.449177 21.912993 -0.848668
2003-03-24 07:53:52 51°15.451 2°54.078 -999 3.449072 21.912253 -0.848668
2003-03-24 07:53:57 51°15.469 2°54.064 -999 3.449072 21.912897 -0.848668
2003-03-24 07:54:01 51°15.483 2°54.053 -999 3.449072 21.912575 -0.848668
2003-03-24 07:54:07 51°15.503 2°54.035 -999 3.448966 21.91248 -0.848668
2003-03-24 07:54:12 51°15.521 2°54.021 -999 3.449072 21.913541 -0.848668
2003-03-24 07:54:17 51°15.538 2°54.007 -999 3.449072 21.913541 -0.848668
2003-03-24 07:54:22 51°15.556 2°53.992 -999 3.449072 21.913541 -0.848668
2003-03-24 07:54:27 51°15.573 2°53.978 -999 3.448966 21.913123 -0.848668
2003-03-24 07:54:31 51°15.588 2°53.967 -999 3.448861 21.912384 -0.882377
2003-03-24 07:54:37 51°15.609 2°53.95 -999 3.448861 21.912706 -0.848668
2003-03-24 07:54:41 51°15.623 2°53.939 -999 3.448861 21.913349 -0.814958
2003-03-24 07:54:47 51°15.644 2°53.921 -999 3.448861 21.913349 -0.814958
2003-03-24 07:54:52 51°15.661 2°53.906 -999 3.44865 21.912192 -0.848668
2003-03-24 07:54:57 51°15.678 2°53.89 -999 3.448756 21.913576 -0.814958
2003-03-24 07:55:01 51°15.692 2°53.878 -999 3.448861 21.914315 -0.848668
2003-03-24 07:55:07 51°15.712 2°53.859 -999 3.448966 21.915377 -0.848668
2003-03-24 07:55:11 51°15.726 2°53.846 -999 3.448966 21.915377 -0.848668
2003-03-24 07:55:17 51°15.746 2°53.828 -999 3.448966 21.915377 -0.848668
2003-03-24 07:55:21 51°15.76 2°53.816 -999 3.448966 21.915055 -0.814958
2003-03-24 07:55:27 51°15.781 2°53.797 -999 3.448861 21.915281 -0.848668
2003-03-24 07:55:31 51°15.795 2°53.784 -999 3.448861 21.914959 -0.848668
2003-03-24 07:55:37 51°15.816 2°53.766 -999 3.448861 21.915281 -0.848668
2003-03-24 07:55:41 51°15.829 2°53.754 -999 3.448756 21.914863 -0.848668
2003-03-24 07:55:47 51°15.85 2°53.735 -999 3.448756 21.914863 -0.848668
2003-03-24 07:55:51 51°15.864 2°53.723 -999 3.448756 21.915507 -0.848668
2003-03-24 07:55:57 51°15.885 2°53.706 -999 3.448756 21.915185 -0.848668
2003-03-24 07:56:02 51°15.903 2°53.692 -999 3.44865 21.914768 -0.848668
2003-03-24 07:56:07 51°15.921 2°53.679 -999 3.44865 21.915412 -0.882377
2003-03-24 07:56:11 51°15.935 2°53.668 -999 3.448545 21.914994 -0.848668
2003-03-24 07:56:17 51°15.957 2°53.652 -999 3.448545 21.914994 -0.848668
2003-03-24 07:56:21 51°15.971 2°53.641 -999 3.448545 21.914672 -0.814958
2003-03-24 07:56:27 51°15.993 2°53.624 -999 3.44844 21.914254 -0.848668
2003-03-24 07:56:32 51°16.011 2°53.611 -999 3.448545 21.915316 -0.848668
2003-03-24 07:56:37 51°16.028 2°53.597 -999 3.44844 21.914576 -0.848668
2003-03-24 07:56:41 51°16.043 2°53.586 -999 3.44844 21.91522 -0.848668
2003-03-24 07:56:47 51°16.064 2°53.57 -999 3.44844 21.91522 -0.848668
2003-03-24 07:56:52 51°16.082 2°53.556 -999 3.448334 21.914481 -0.814958
2003-03-24 07:56:57 51°16.1 2°53.543 -999 3.448334 21.915125 -0.848668
2003-03-24 07:57:01 51°16.114 2°53.532 -999 3.448334 21.915125 -0.848668
2003-03-24 07:57:07 51°16.136 2°53.516 -999 3.448229 21.914707 -0.814958
2003-03-24 07:57:12 51°16.153 2°53.503 -999 3.448124 21.913968 -0.848668
2003-03-24 07:57:17 51°16.171 2°53.489 -999 3.448124 21.913968 -0.848668
2003-03-24 07:57:21 51°16.186 2°53.478 -999 3.448229 21.915351 -0.814958
2003-03-24 07:57:27 51°16.207 2°53.462 -999 3.448124 21.914612 -0.848668
2003-03-24 07:57:32 51°16.225 2°53.449 -999 3.448124 21.914934 -0.882377
2003-03-24 07:57:37 51°16.243 2°53.435 -999 3.448124 21.914934 -0.848668
2003-03-24 07:57:42 51°16.261 2°53.422 -999 3.448018 21.914838 -0.814958
2003-03-24 07:57:47 51°16.279 2°53.409 -999 3.448018 21.914838 -0.814958
2003-03-24 07:57:52 51°16.296 2°53.395 -999 3.448018 21.914516 -0.848668
2003-03-24 07:57:57 51°16.314 2°53.382 -999 3.447913 21.914098 -0.882377
2003-03-24 07:58:01 51°16.329 2°53.371 -999 3.447913 21.91442 -0.848668
2003-03-24 07:58:07 51°16.35 2°53.355 -999 3.447913 21.91442 -0.848668
2003-03-24 07:58:12 51°16.368 2°53.342 -999 3.447913 21.915064 -0.814958
2003-03-24 07:58:17 51°16.386 2°53.328 -999 3.447913 21.915064 -0.814958
2003-03-24 07:58:22 51°16.403 2°53.314 -999 3.447808 21.914647 -0.848668
2003-03-24 07:58:27 51°16.421 2°53.3 -999 3.447808 21.914325 -0.814958
2003-03-24 07:58:32 51°16.439 2°53.286 -999 3.447702 21.914229 -0.848668
2003-03-24 07:58:37 51°16.456 2°53.273 -999 3.447702 21.914551 -0.848668
2003-03-24 07:58:41 51°16.47 2°53.262 -999 3.447702 21.914551 -0.848668
2003-03-24 07:58:47 51°16.492 2°53.246 -999 3.447702 21.914551 -0.848668
2003-03-24 07:58:51 51°16.506 2°53.235 -999 3.447702 21.914873 -0.848668
2003-03-24 07:58:57 51°16.527 2°53.219 -999 3.447597 21.914456 -0.814958
2003-03-24 07:59:01 51°16.541 2°53.209 -999 3.447597 21.914778 -0.848668
2003-03-24 07:59:07 51°16.563 2°53.192 -999 3.447597 21.914778 -0.848668
2003-03-24 07:59:11 51°16.577 2°53.181 -999 3.447492 21.91436 -0.814958
2003-03-24 07:59:17 51°16.598 2°53.164 -999 3.447492 21.91436 -0.814958
2003-03-24 07:59:21 51°16.612 2°53.152 -999 3.447597 21.915422 -0.814958
2003-03-24 07:59:27 51°16.632 2°53.134 -999 3.447386 21.914264 -0.814958
2003-03-24 07:59:31 51°16.646 2°53.121 -999 3.447492 21.915326 -0.848668
2003-03-24 07:59:37 51°16.666 2°53.103 -999 3.447281 21.913847 -0.848668
2003-03-24 07:59:42 51°16.683 2°53.087 -999 3.447281 21.914491 -0.848668
2003-03-24 07:59:47 51°16.7 2°53.072 -999 3.447281 21.914491 -0.848668
2003-03-24 07:59:52 51°16.717 2°53.056 -999 3.447492 21.915648 -0.848668
2003-03-24 07:59:57 51°16.735 2°53.041 -999 3.447176 21.913751 -0.882377
2003-03-24 08:00:02 51°16.752 2°53.025 -999 3.447176 21.914073 -0.882377
2003-03-24 08:00:07 51°16.769 2°53.01 -999 3.447176 21.914073 -0.848668
2003-03-24 08:00:12 51°16.786 2°52.994 -999 3.447176 21.914395 -0.848668
2003-03-24 08:00:17 51°16.803 2°52.979 -999 3.447176 21.914395 -0.848668
2003-03-24 08:00:21 51°16.817 2°52.967 -999 3.44707 21.913978 -0.848668
2003-03-24 08:00:27 51°16.837 2°52.949 -999 3.44707 21.913978 -0.848668
2003-03-24 08:00:32 51°16.854 2°52.934 -999 3.446965 21.91356 -0.848668
2003-03-24 08:00:37 51°16.87 2°52.92 -999 3.44707 21.914622 -0.848668
2003-03-24 08:00:41 51°16.884 2°52.908 -999 3.446965 21.914204 -0.848668
2003-03-24 08:00:47 51°16.904 2°52.89 -999 3.446965 21.914204 -0.848668
2003-03-24 08:00:51 51°16.917 2°52.878 -999 3.44686 21.913786 -0.848668
2003-03-24 08:00:57 51°16.938 2°52.86 -999 3.44686 21.914109 -0.848668
2003-03-24 08:01:02 51°16.955 2°52.845 -999 3.44686 21.914431 -0.882377
2003-03-24 08:01:07 51°16.973 2°52.83 -999 3.44686 21.914109 -0.848668
2003-03-24 08:01:10 51°16.983 2°52.821 -999 3.44686 21.914431 -0.848668
2003-03-24 08:01:17 51°17.007 2°52.8 -999 3.44686 21.914431 -0.848668
2003-03-24 08:01:22 51°17.024 2°52.785 -999 3.446754 21.914013 -0.848668
2003-03-24 08:01:27 51°17.042 2°52.77 -999 3.446649 21.913273 -0.848668
2003-03-24 08:01:32 51°17.059 2°52.754 -999 3.446649 21.913918 -0.814958
2003-03-24 08:01:37 51°17.076 2°52.739 -999 3.446649 21.913918 -0.848668
2003-03-24 08:01:41 51°17.09 2°52.726 -999 3.446544 21.9135 -0.814958
2003-03-24 08:01:46 51°17.108 2°52.711 -999 3.446649 21.91424 -0.848668
2003-03-24 08:01:52 51°17.128 2°52.692 -999 3.446649 21.91424 -0.848668
2003-03-24 08:01:57 51°17.146 2°52.676 -999 3.446649 21.914884 -0.848668
2003-03-24 08:02:02 51°17.163 2°52.661 -999 3.446544 21.914466 -0.882377
2003-03-24 08:02:07 51°17.179 2°52.645 -999 3.446544 21.914466 -0.814958
2003-03-24 08:02:10 51°17.19 2°52.636 -999 3.446439 21.914049 -0.848668
2003-03-24 08:02:17 51°17.214 2°52.614 -999 3.446439 21.914049 -0.848668
2003-03-24 08:02:22 51°17.231 2°52.599 -999 3.446439 21.914049 -0.848668
2003-03-24 08:02:27 51°17.248 2°52.584 -999 3.446439 21.914371 -0.814958
2003-03-24 08:02:32 51°17.265 2°52.568 -999 3.446228 21.912891 -0.848668
2003-03-24 08:02:37 51°17.282 2°52.551 -999 3.446333 21.914598 -0.848668
2003-03-24 08:02:41 51°17.295 2°52.537 -999 3.446333 21.914598 -0.814958
2003-03-24 08:02:46 51°17.312 2°52.52 -999 3.446333 21.914598 -0.814958
2003-03-24 08:02:52 51°17.331 2°52.497 -999 3.446228 21.914502 -0.814958
2003-03-24 08:02:57 51°17.346 2°52.478 -999 3.446228 21.91418 -0.882377
2003-03-24 08:03:02 51°17.362 2°52.46 -999 3.446123 21.913762 -0.848668
2003-03-24 08:03:07 51°17.378 2°52.44 -999 3.446017 21.913666 -0.848668
2003-03-24 08:03:10 51°17.387 2°52.428 -999 3.446017 21.913666 -0.848668
2003-03-24 08:03:17 51°17.409 2°52.401 -999 3.446017 21.913666 -0.848668
2003-03-24 08:03:22 51°17.424 2°52.381 -999 3.446017 21.913666 -0.882377
2003-03-24 08:03:27 51°17.439 2°52.361 -999 3.445912 21.912926 -0.814958
2003-03-24 08:03:32 51°17.455 2°52.341 -999 3.446017 21.913989 -0.848668
2003-03-24 08:03:37 51°17.47 2°52.321 -999 3.445912 21.913571 -0.848668
2003-03-24 08:03:41 51°17.483 2°52.306 -999 3.446017 21.914633 -0.848668
2003-03-24 08:03:46 51°17.497 2°52.284 -999 3.446017 21.914633 -0.848668
2003-03-24 08:03:52 51°17.515 2°52.259 -999 3.445807 21.913798 -0.848668
2003-03-24 08:03:57 51°17.529 2°52.237 -999 3.445912 21.915182 -0.848668
2003-03-24 08:04:02 51°17.543 2°52.215 -999 3.445912 21.91486 -0.848668
2003-03-24 08:04:07 51°17.557 2°52.193 -999 3.445807 21.914442 -0.814958
2003-03-24 08:04:10 51°17.565 2°52.18 -999 3.445701 21.913702 -0.848668
2003-03-24 08:04:17 51°17.584 2°52.148 -999 3.445701 21.913702 -0.848668
2003-03-24 08:04:22 51°17.597 2°52.124 -999 3.445807 21.914765 -0.848668
2003-03-24 08:04:27 51°17.61 2°52.1 -999 3.445701 21.914024 -0.848668
2003-03-24 08:04:32 51°17.622 2°52.075 -999 3.445596 21.913607 -0.848668
2003-03-24 08:04:37 51°17.634 2°52.051 -999 3.445701 21.914347 -0.848668
2003-03-24 08:04:41 51°17.644 2°52.031 -999 3.445491 21.913189 -0.848668
2003-03-24 08:04:47 51°17.659 2°52.002 -999 3.445491 21.913189 -0.848668
2003-03-24 08:04:52 51°17.671 2°51.976 -999 3.445596 21.914574 -0.814958
2003-03-24 08:04:57 51°17.683 2°51.952 -999 3.445596 21.914574 -0.848668
2003-03-24 08:05:01 51°17.692 2°51.931 -999 3.445596 21.914896 -0.848668
2003-03-24 08:05:07 51°17.707 2°51.901 -999 3.445491 21.914156 -0.814958
2003-03-24 08:05:11 51°17.716 2°51.881 -999 3.445491 21.914478 -0.814958
2003-03-24 08:05:17 51°17.73 2°51.85 -999 3.445491 21.914478 -0.814958
2003-03-24 08:05:22 51°17.741 2°51.825 -999 3.445385 21.914383 -0.848668
2003-03-24 08:05:27 51°17.753 2°51.799 -999 3.44528 21.91332 -0.848668
2003-03-24 08:05:32 51°17.765 2°51.774 -999 3.44528 21.913642 -0.848668
2003-03-24 08:05:37 51°17.776 2°51.749 -999 3.445385 21.914705 -0.814958
2003-03-24 08:05:41 51°17.786 2°51.728 -999 3.445175 21.913547 -0.882377
2003-03-24 08:05:47 51°17.799 2°51.698 -999 3.445175 21.913547 -0.882377
2003-03-24 08:05:52 51°17.811 2°51.672 -999 3.445175 21.913869 -0.814958
2003-03-24 08:05:57 51°17.823 2°51.647 -999 3.44528 21.91461 -0.848668
2003-03-24 08:06:01 51°17.832 2°51.626 -999 3.445175 21.914192 -0.848668
2003-03-24 08:06:07 51°17.845 2°51.595 -999 3.445175 21.914514 -0.848668
2003-03-24 08:06:12 51°17.856 2°51.569 -999 3.445069 21.914419 -0.882377
2003-03-24 08:06:16 51°17.865 2°51.548 -999 3.445069 21.914419 -0.882377
2003-03-24 08:06:21 51°17.876 2°51.522 -999 3.445069 21.914419 -0.848668
2003-03-24 08:06:27 51°17.889 2°51.49 -999 3.444964 21.914323 -0.848668
2003-03-24 08:06:32 51°17.901 2°51.464 -999 3.444964 21.914323 -0.814958
2003-03-24 08:06:37 51°17.913 2°51.438 -999 3.444964 21.914323 -0.848668
2003-03-24 08:06:41 51°17.922 2°51.418 -999 3.444964 21.914646 -0.848668
2003-03-24 08:06:47 51°17.936 2°51.387 -999 3.444964 21.914646 -0.848668
2003-03-24 08:06:52 51°17.948 2°51.362 -999 3.444859 21.914228 -0.814958
2003-03-24 08:06:57 51°17.96 2°51.336 -999 3.444753 21.91381 -0.848668
2003-03-24 08:07:02 51°17.971 2°51.31 -999 3.444859 21.914873 -0.848668
2003-03-24 08:07:07 51°17.982 2°51.284 -999 3.444753 21.914132 -0.848668
2003-03-24 08:07:12 51°17.994 2°51.258 -999 3.444753 21.914777 -0.814958
2003-03-24 08:07:17 51°18.005 2°51.231 -999 3.444753 21.914777 -0.814958
2003-03-24 08:07:21 51°18.014 2°51.21 -999 3.444753 21.914777 -0.848668
2003-03-24 08:07:27 51°18.027 2°51.179 -999 3.444753 21.9151 -0.848668
2003-03-24 08:07:31 51°18.037 2°51.158 -999 3.444753 21.9151 -0.848668
2003-03-24 08:07:37 51°18.05 2°51.127 -999 3.444648 21.914682 -0.848668
2003-03-24 08:07:42 51°18.061 2°51.101 -999 3.444543 21.914264 -0.848668
2003-03-24 08:07:47 51°18.073 2°51.075 -999 3.444543 21.914264 -0.848668
2003-03-24 08:07:52 51°18.084 2°51.049 -999 3.444543 21.914264 -0.848668
2003-03-24 08:07:57 51°18.095 2°51.023 -999 3.444543 21.914586 -0.848668
2003-03-24 08:08:02 51°18.107 2°50.997 -999 3.444543 21.915231 -0.814958
2003-03-24 08:08:07 51°18.118 2°50.971 -999 3.444437 21.914491 -0.848668
2003-03-24 08:08:12 51°18.129 2°50.945 -999 3.444437 21.914813 -0.848668
2003-03-24 08:08:17 51°18.141 2°50.919 -999 3.444437 21.914813 -0.848668
2003-03-24 08:08:21 51°18.15 2°50.898 -999 3.444332 21.914718 -0.814958
2003-03-24 08:08:26 51°18.161 2°50.872 -999 3.444437 21.915458 -0.848668
2003-03-24 08:08:32 51°18.174 2°50.841 -999 3.444332 21.914718 -0.848668
2003-03-24 08:08:37 51°18.186 2°50.815 -999 3.444227 21.914622 -0.848668
2003-03-24 08:08:41 51°18.195 2°50.794 -999 3.444227 21.914622 -0.848668
2003-03-24 08:08:47 51°18.208 2°50.763 -999 3.444227 21.914622 -0.848668
2003-03-24 08:08:52 51°18.219 2°50.736 -999 3.444121 21.914205 -0.848668
2003-03-24 08:08:57 51°18.23 2°50.71 -999 3.444227 21.915268 -0.848668
2003-03-24 08:09:02 51°18.241 2°50.684 -999 3.444016 21.914109 -0.848668
2003-03-24 08:09:07 51°18.252 2°50.658 -999 3.444016 21.914432 -0.814958
2003-03-24 08:09:10 51°18.258 2°50.642 -999 3.444016 21.914754 -0.848668
2003-03-24 08:09:17 51°18.273 2°50.605 -999 3.444016 21.914754 -0.882377
2003-03-24 08:09:22 51°18.285 2°50.579 -999 3.444016 21.914754 -0.882377
2003-03-24 08:09:27 51°18.296 2°50.553 -999 3.443911 21.914336 -0.848668
2003-03-24 08:09:32 51°18.307 2°50.527 -999 3.443911 21.914659 -0.848668
2003-03-24 08:09:37 51°18.319 2°50.5 -999 3.443806 21.914241 -0.848668
2003-03-24 08:09:41 51°18.328 2°50.479 -999 3.443911 21.915304 -0.848668
2003-03-24 08:09:46 51°18.339 2°50.453 -999 3.4437 21.914145 -0.848668
2003-03-24 08:09:52 51°18.352 2°50.421 -999 3.4437 21.914145 -0.848668
2003-03-24 08:09:57 51°18.363 2°50.395 -999 3.4437 21.913823 -0.848668
2003-03-24 08:10:01 51°18.372 2°50.375 -999 3.443806 21.915209 -0.848668
2003-03-24 08:10:07 51°18.386 2°50.343 -999 3.4437 21.914468 -0.848668
2003-03-24 08:10:12 51°18.396 2°50.317 -999 3.4437 21.914791 -0.848668
2003-03-24 08:10:17 51°18.408 2°50.29 -999 3.4437 21.914791 -0.848668
2003-03-24 08:10:20 51°18.414 2°50.275 -999 3.4437 21.915113 -0.848668
2003-03-24 08:10:27 51°18.43 2°50.238 -999 3.443595 21.914373 -0.848668
2003-03-24 08:10:32 51°18.442 2°50.211 -999 3.443595 21.915018 -0.814958
2003-03-24 08:10:37 51°18.453 2°50.186 -999 3.443595 21.915018 -0.882377
2003-03-24 08:10:42 51°18.464 2°50.159 -999 3.44349 21.914922 -0.814958
2003-03-24 08:10:47 51°18.475 2°50.133 -999 3.44349 21.914922 -0.814958
2003-03-24 08:10:52 51°18.486 2°50.106 -999 3.443595 21.91534 -0.848668
2003-03-24 08:10:57 51°18.497 2°50.08 -999 3.44349 21.915245 -0.848668
2003-03-24 08:11:01 51°18.506 2°50.06 -999 3.44349 21.915245 -0.848668
2003-03-24 08:11:07 51°18.519 2°50.028 -999 3.443384 21.91515 -0.814958
2003-03-24 08:11:11 51°18.528 2°50.008 -999 3.443384 21.91515 -0.848668
2003-03-24 08:11:17 51°18.541 2°49.977 -999 3.443384 21.91515 -0.848668
2003-03-24 08:11:21 51°18.549 2°49.956 -999 3.443384 21.91515 -0.848668
2003-03-24 08:11:27 51°18.563 2°49.925 -999 3.443174 21.914314 -0.814958
2003-03-24 08:11:32 51°18.574 2°49.899 -999 3.443279 21.915054 -0.882377
2003-03-24 08:11:37 51°18.585 2°49.873 -999 3.443279 21.915377 -0.848668
2003-03-24 08:11:41 51°18.594 2°49.852 -999 3.443068 21.914541 -0.848668
2003-03-24 08:11:47 51°18.608 2°49.821 -999 3.443068 21.914541 -0.848668
2003-03-24 08:11:52 51°18.619 2°49.795 -999 3.443068 21.914541 -0.814958
2003-03-24 08:11:57 51°18.63 2°49.769 -999 3.443068 21.914864 -0.848668
2003-03-24 08:12:02 51°18.641 2°49.743 -999 3.443068 21.914864 -0.848668
2003-03-24 08:12:07 51°18.652 2°49.717 -999 3.442963 21.914768 -0.848668
2003-03-24 08:12:12 51°18.663 2°49.691 -999 3.443068 21.915186 -0.814958
2003-03-24 08:12:16 51°18.672 2°49.67 -999 3.443068 21.915186 -0.814958
2003-03-24 08:12:21 51°18.683 2°49.644 -999 3.442963 21.915091 -0.848668
2003-03-24 08:12:27 51°18.696 2°49.613 -999 3.442963 21.915091 -0.882377
2003-03-24 08:12:32 51°18.708 2°49.587 -999 3.442858 21.914996 -0.882377
2003-03-24 08:12:37 51°18.718 2°49.56 -999 3.442858 21.914673 -0.848668
2003-03-24 08:12:41 51°18.728 2°49.54 -999 3.442858 21.915641 -0.848668
2003-03-24 08:12:47 51°18.741 2°49.508 -999 3.442858 21.915641 -0.848668
2003-03-24 08:12:52 51°18.752 2°49.482 -999 3.442752 21.914578 -0.848668
2003-03-24 08:12:57 51°18.762 2°49.456 -999 3.442752 21.9149 -0.882377
2003-03-24 08:13:02 51°18.774 2°49.43 -999 3.442752 21.915223 -0.848668
2003-03-24 08:13:07 51°18.784 2°49.404 -999 3.442647 21.914482 -0.814958
2003-03-24 08:13:12 51°18.796 2°49.378 -999 3.442647 21.914805 -0.814958
2003-03-24 08:13:17 51°18.807 2°49.352 -999 3.442647 21.914805 -0.814958
2003-03-24 08:13:21 51°18.816 2°49.331 -999 3.442542 21.914387 -0.848668
2003-03-24 08:13:26 51°18.827 2°49.305 -999 3.442542 21.91471 -0.848668
2003-03-24 08:13:32 51°18.841 2°49.272 -999 3.442542 21.915032 -0.814958
2003-03-24 08:13:37 51°18.852 2°49.246 -999 3.442542 21.915355 -0.848668
2003-03-24 08:13:42 51°18.863 2°49.219 -999 3.442436 21.914292 -0.848668
2003-03-24 08:13:47 51°18.875 2°49.193 -999 3.442436 21.914292 -0.848668
2003-03-24 08:13:52 51°18.886 2°49.166 -999 3.442436 21.914937 -0.848668
2003-03-24 08:13:57 51°18.897 2°49.14 -999 3.442436 21.91526 -0.848668
2003-03-24 08:14:02 51°18.909 2°49.113 -999 3.442331 21.914842 -0.848668
2003-03-24 08:14:07 51°18.92 2°49.087 -999 3.442331 21.915165 -0.848668
2003-03-24 08:14:12 51°18.931 2°49.061 -999 3.442226 21.914424 -0.814958
2003-03-24 08:14:17 51°18.942 2°49.034 -999 3.442226 21.914424 -0.814958
2003-03-24 08:14:22 51°18.953 2°49.007 -999 3.442331 21.91581 -0.848668
2003-03-24 08:14:27 51°18.964 2°48.981 -999 3.442226 21.915069 -0.848668
2003-03-24 08:14:32 51°18.976 2°48.954 -999 3.442226 21.915069 -0.848668
2003-03-24 08:14:37 51°18.987 2°48.928 -999 3.442015 21.913587 -0.848668
2003-03-24 08:14:42 51°18.999 2°48.901 -999 3.44212 21.914974 -0.848668
2003-03-24 08:14:47 51°19.01 2°48.875 -999 3.44212 21.914974 -0.848668
2003-03-24 08:14:52 51°19.021 2°48.848 -999 3.442015 21.914556 -0.882377
2003-03-24 08:14:57 51°19.032 2°48.821 -999 3.442015 21.914556 -0.848668
2003-03-24 08:15:01 51°19.041 2°48.799 -999 3.44191 21.914461 -0.848668
2003-03-24 08:15:07 51°19.055 2°48.768 -999 3.44191 21.914461 -0.848668
2003-03-24 08:15:13 51°19.068 2°48.736 -999 3.44191 21.914783 -0.848668
2003-03-24 08:15:16 51°19.075 2°48.72 -999 3.44191 21.914783 -0.848668
2003-03-24 08:15:21 51°19.087 2°48.693 -999 3.441804 21.914365 -0.848668
2003-03-24 08:15:27 51°19.101 2°48.662 -999 3.441804 21.914688 -0.882377
2003-03-24 08:15:32 51°19.112 2°48.635 -999 3.441804 21.914688 -0.848668
2003-03-24 08:15:37 51°19.124 2°48.609 -999 3.441804 21.915334 -0.848668
2003-03-24 08:15:42 51°19.135 2°48.582 -999 3.441699 21.914593 -0.848668
2003-03-24 08:15:47 51°19.146 2°48.556 -999 3.441699 21.914593 -0.848668
2003-03-24 08:15:52 51°19.157 2°48.529 -999 3.441699 21.915239 -0.848668
2003-03-24 08:15:57 51°19.168 2°48.502 -999 3.441699 21.914916 -0.848668
2003-03-24 08:16:01 51°19.177 2°48.481 -999 3.441699 21.915239 -0.848668
2003-03-24 08:16:07 51°19.19 2°48.45 -999 3.441594 21.915143 -0.848668
2003-03-24 08:16:12 51°19.201 2°48.423 -999 3.441489 21.914725 -0.882377
2003-03-24 08:16:17 51°19.213 2°48.397 -999 3.441489 21.914725 -0.882377
2003-03-24 08:16:21 51°19.222 2°48.376 -999 3.441594 21.915143 -0.848668
2003-03-24 08:16:27 51°19.235 2°48.344 -999 3.441489 21.915048 -0.882377
2003-03-24 08:16:32 51°19.246 2°48.318 -999 3.441489 21.915371 -0.848668
2003-03-24 08:16:37 51°19.257 2°48.291 -999 3.441489 21.915048 -0.848668
2003-03-24 08:16:42 51°19.268 2°48.265 -999 3.441383 21.915276 -0.848668
2003-03-24 08:16:47 51°19.279 2°48.239 -999 3.441383 21.915276 -0.848668
2003-03-24 08:16:52 51°19.29 2°48.212 -999 3.441383 21.915276 -0.882377
2003-03-24 08:16:57 51°19.302 2°48.186 -999 3.441278 21.91518 -0.814958
2003-03-24 08:17:02 51°19.313 2°48.16 -999 3.441278 21.915503 -0.848668
2003-03-24 08:17:07 51°19.324 2°48.134 -999 3.441278 21.915503 -0.882377
2003-03-24 08:17:12 51°19.336 2°48.107 -999 3.441278 21.915503 -0.848668
2003-03-24 08:17:16 51°19.345 2°48.086 -999 3.441278 21.915503 -0.848668
2003-03-24 08:17:21 51°19.356 2°48.06 -999 3.441278 21.916149 -0.848668
2003-03-24 08:17:27 51°19.37 2°48.028 -999 3.441173 21.915731 -0.814958
2003-03-24 08:17:32 51°19.381 2°48.002 -999 3.441067 21.91499 -0.848668
2003-03-24 08:17:37 51°19.393 2°47.975 -999 3.441067 21.915313 -0.848668
2003-03-24 08:17:40 51°19.4 2°47.959 -999 3.440962 21.914895 -0.848668
2003-03-24 08:17:47 51°19.416 2°47.922 -999 3.440962 21.915218 -0.882377
2003-03-24 08:17:52 51°19.428 2°47.896 -999 3.440962 21.915218 -0.882377
2003-03-24 08:17:57 51°19.439 2°47.87 -999 3.440962 21.915218 -0.848668
2003-03-24 08:18:02 51°19.451 2°47.843 -999 3.440962 21.915541 -0.848668
2003-03-24 08:18:07 51°19.462 2°47.817 -999 3.440962 21.915864 -0.848668
2003-03-24 08:18:12 51°19.474 2°47.791 -999 3.440857 21.915122 -0.848668
2003-03-24 08:18:17 51°19.485 2°47.764 -999 3.440857 21.915122 -0.848668
2003-03-24 08:18:21 51°19.494 2°47.744 -999 3.440857 21.915768 -0.848668
2003-03-24 08:18:25 51°19.504 2°47.723 -999 3.440751 21.915027 -0.814958
2003-03-24 08:18:32 51°19.52 2°47.685 -999 3.440857 21.916414 -0.848668
2003-03-24 08:18:37 51°19.532 2°47.659 -999 3.440751 21.91535 -0.848668
2003-03-24 08:18:42 51°19.543 2°47.633 -999 3.440646 21.915255 -0.848668
2003-03-24 08:18:47 51°19.555 2°47.607 -999 3.440646 21.915255 -0.848668
2003-03-24 08:18:51 51°19.564 2°47.586 -999 3.440646 21.915578 -0.848668
2003-03-24 08:18:57 51°19.578 2°47.555 -999 3.440646 21.915578 -0.848668
2003-03-24 08:19:01 51°19.587 2°47.534 -999 3.440541 21.91516 -0.848668
2003-03-24 08:19:07 51°19.6 2°47.503 -999 3.440435 21.914742 -0.848668
2003-03-24 08:19:11 51°19.609 2°47.481 -999 3.440435 21.914742 -0.848668
2003-03-24 08:19:17 51°19.622 2°47.451 -999 3.440435 21.914742 -0.848668
2003-03-24 08:19:21 51°19.63 2°47.43 -999 3.440435 21.915388 -0.848668
2003-03-24 08:19:27 51°19.643 2°47.399 -999 3.440541 21.916452 -0.848668
2003-03-24 08:19:32 51°19.654 2°47.373 -999 3.44033 21.915292 -0.848668
2003-03-24 08:19:37 51°19.665 2°47.347 -999 3.44033 21.915615 -0.814958
2003-03-24 08:19:41 51°19.674 2°47.326 -999 3.44033 21.915615 -0.848668
2003-03-24 08:19:47 51°19.688 2°47.295 -999 3.44033 21.915615 -0.848668
2003-03-24 08:19:52 51°19.698 2°47.269 -999 3.440225 21.915197 -0.882377
2003-03-24 08:19:56 51°19.707 2°47.249 -999 3.440225 21.91552 -0.814958
2003-03-24 08:20:02 51°19.719 2°47.217 -999 3.440225 21.915843 -0.848668
2003-03-24 08:20:06 51°19.728 2°47.196 -999 3.440119 21.915425 -0.848668
2003-03-24 08:20:11 51°19.739 2°47.17 -999 3.440014 21.915007 -0.848668
2003-03-24 08:20:17 51°19.751 2°47.138 -999 3.440014 21.915007 -0.848668
2003-03-24 08:20:20 51°19.758 2°47.122 -999 3.440014 21.91533 -0.848668
2003-03-24 08:20:25 51°19.768 2°47.096 -999 3.440119 21.916071 -0.848668
2003-03-24 08:20:32 51°19.783 2°47.059 -999 3.440014 21.91533 -0.848668
2003-03-24 08:20:37 51°19.793 2°47.033 -999 3.439909 21.915235 -0.848668
2003-03-24 08:20:41 51°19.801 2°47.012 -999 3.440014 21.916622 -0.848668
2003-03-24 08:20:47 51°19.814 2°46.98 -999 3.440014 21.916622 -0.848668
2003-03-24 08:20:52 51°19.824 2°46.954 -999 3.440014 21.916622 -0.848668
2003-03-24 08:20:57 51°19.835 2°46.928 -999 3.439803 21.915463 -0.848668
2003-03-24 08:21:01 51°19.843 2°46.907 -999 3.439909 21.916527 -0.814958
2003-03-24 08:21:07 51°19.856 2°46.875 -999 3.439909 21.91685 -0.814958
2003-03-24 08:21:12 51°19.866 2°46.848 -999 3.439803 21.916432 -0.848668
2003-03-24 08:21:17 51°19.877 2°46.821 -999 3.439803 21.916432 -0.848668
2003-03-24 08:21:21 51°19.885 2°46.8 -999 3.439698 21.916014 -0.882377
2003-03-24 08:21:27 51°19.897 2°46.768 -999 3.439698 21.916014 -0.848668
2003-03-24 08:21:31 51°19.906 2°46.746 -999 3.439593 21.915596 -0.848668
2003-03-24 08:21:37 51°19.918 2°46.714 -999 3.439698 21.91666 -0.848668
2003-03-24 08:21:41 51°19.926 2°46.693 -999 3.439593 21.916242 -0.814958
2003-03-24 08:21:48 51°19.941 2°46.655 -999 3.439593 21.916242 -0.814958
2003-03-24 08:21:52 51°19.949 2°46.634 -999 3.439487 21.915824 -0.848668
2003-03-24 08:21:57 51°19.959 2°46.607 -999 3.439593 21.916565 -0.848668
2003-03-24 08:22:01 51°19.967 2°46.585 -999 3.439382 21.915082 -0.848668
2003-03-24 08:22:07 51°19.98 2°46.553 -999 3.439487 21.916793 -0.848668
2003-03-24 08:22:12 51°19.99 2°46.526 -999 3.439487 21.91647 -0.848668
2003-03-24 08:22:17 51°20 2°46.498 -999 3.439487 21.91647 -0.848668
2003-03-24 08:22:21 51°20.008 2°46.476 -999 3.439277 21.91628 -0.848668
2003-03-24 08:22:27 51°20.019 2°46.442 -999 3.439277 21.91628 -0.848668
2003-03-24 08:22:32 51°20.028 2°46.413 -999 3.439172 21.915861 -0.848668
2003-03-24 08:22:37 51°20.037 2°46.385 -999 3.439172 21.915861 -0.848668
2003-03-24 08:22:41 51°20.043 2°46.362 -999 3.439172 21.916185 -0.848668
2003-03-24 08:22:47 51°20.053 2°46.327 -999 3.439172 21.916185 -0.848668
2003-03-24 08:22:52 51°20.061 2°46.298 -999 3.439066 21.916089 -0.882377
2003-03-24 08:22:57 51°20.068 2°46.269 -999 3.439172 21.916508 -0.814958
2003-03-24 08:23:01 51°20.074 2°46.245 -999 3.439172 21.916831 -0.848668
2003-03-24 08:23:07 51°20.083 2°46.21 -999 3.439066 21.916089 -0.848668
2003-03-24 08:23:12 51°20.089 2°46.18 -999 3.439066 21.916413 -0.848668
2003-03-24 08:23:17 51°20.097 2°46.151 -999 3.439066 21.916413 -0.848668
2003-03-24 08:23:21 51°20.102 2°46.127 -999 3.438961 21.916318 -0.882377
2003-03-24 08:23:27 51°20.11 2°46.091 -999 3.438961 21.916318 -0.848668
2003-03-24 08:23:32 51°20.117 2°46.061 -999 3.438961 21.916964 -0.814958
2003-03-24 08:23:37 51°20.124 2°46.031 -999 3.438856 21.916223 -0.848668
2003-03-24 08:23:41 51°20.128 2°46.006 -999 3.43875 21.916451 -0.848668
2003-03-24 08:23:47 51°20.135 2°45.97 -999 3.43875 21.916451 -0.848668
2003-03-24 08:23:51 51°20.139 2°45.946 -999 3.438856 21.916869 -0.848668
2003-03-24 08:23:57 51°20.146 2°45.909 -999 3.43875 21.916451 -0.814958
2003-03-24 08:24:01 51°20.15 2°45.885 -999 3.43875 21.916451 -0.814958
2003-03-24 08:24:07 51°20.156 2°45.848 -999 3.438645 21.916032 -0.814958
2003-03-24 08:24:11 51°20.16 2°45.824 -999 3.43854 21.915291 -0.848668
2003-03-24 08:24:17 51°20.166 2°45.786 -999 3.438645 21.916679 -0.848668
2003-03-24 08:24:22 51°20.171 2°45.755 -999 3.438645 21.916679 -0.848668
2003-03-24 08:24:27 51°20.176 2°45.725 -999 3.43854 21.915937 -0.848668
2003-03-24 08:24:32 51°20.181 2°45.694 -999 3.438434 21.915842 -0.848668
2003-03-24 08:24:37 51°20.186 2°45.663 -999 3.43854 21.916584 -0.848668
2003-03-24 08:24:41 51°20.19 2°45.639 -999 3.438434 21.916166 -0.882377
2003-03-24 08:24:47 51°20.197 2°45.603 -999 3.438434 21.916166 -0.882377
2003-03-24 08:24:52 51°20.202 2°45.572 -999 3.438434 21.917136 -0.848668
2003-03-24 08:24:57 51°20.207 2°45.541 -999 3.438434 21.917136 -0.848668
2003-03-24 08:25:02 51°20.213 2°45.511 -999 3.438329 21.916717 -0.848668
2003-03-24 08:25:07 51°20.218 2°45.481 -999 3.438329 21.916717 -0.848668
2003-03-24 08:25:11 51°20.223 2°45.457 -999 3.438224 21.916299 -0.848668
2003-03-24 08:25:17 51°20.229 2°45.42 -999 3.438224 21.916299 -0.848668
2003-03-24 08:25:21 51°20.233 2°45.395 -999 3.438224 21.916945 -0.848668
2003-03-24 08:25:27 51°20.24 2°45.359 -999 3.438224 21.916945 -0.814958
2003-03-24 08:25:32 51°20.245 2°45.328 -999 3.438118 21.916204 -0.848668
2003-03-24 08:25:37 51°20.251 2°45.297 -999 3.438013 21.916432 -0.848668
2003-03-24 08:25:40 51°20.255 2°45.279 -999 3.438013 21.916109 -0.848668
2003-03-24 08:25:47 51°20.262 2°45.236 -999 3.438013 21.916109 -0.848668
2003-03-24 08:25:52 51°20.268 2°45.205 -999 3.438013 21.916755 -0.848668
2003-03-24 08:25:57 51°20.274 2°45.174 -999 3.438013 21.917079 -0.848668
2003-03-24 08:26:01 51°20.278 2°45.15 -999 3.437908 21.91666 -0.848668
2003-03-24 08:26:07 51°20.284 2°45.113 -999 3.437802 21.916242 -0.848668
2003-03-24 08:26:11 51°20.289 2°45.088 -999 3.437802 21.916889 -0.848668
2003-03-24 08:26:17 51°20.295 2°45.051 -999 3.437802 21.916889 -0.848668
2003-03-24 08:26:21 51°20.299 2°45.026 -999 3.437908 21.917307 -0.814958
2003-03-24 08:26:27 51°20.305 2°44.989 -999 3.437802 21.916889 -0.814958
2003-03-24 08:26:32 51°20.31 2°44.958 -999 3.437802 21.917536 -0.848668
2003-03-24 08:26:37 51°20.314 2°44.928 -999 3.437697 21.916794 -0.848668
2003-03-24 08:26:42 51°20.318 2°44.897 -999 3.437697 21.917441 -0.882377
2003-03-24 08:26:47 51°20.322 2°44.867 -999 3.437697 21.917441 -0.882377
2003-03-24 08:26:52 51°20.326 2°44.836 -999 3.437592 21.916375 -0.848668
2003-03-24 08:26:57 51°20.33 2°44.806 -999 3.437592 21.917022 -0.848668
2003-03-24 08:27:02 51°20.334 2°44.775 -999 3.437592 21.917022 -0.848668
2003-03-24 08:27:07 51°20.338 2°44.745 -999 3.437592 21.917669 -0.848668
2003-03-24 08:27:12 51°20.341 2°44.715 -999 3.437381 21.916509 -0.882377
2003-03-24 08:27:17 51°20.345 2°44.684 -999 3.437381 21.916509 -0.882377
2003-03-24 08:27:21 51°20.348 2°44.66 -999 3.437381 21.916185 -0.882377
2003-03-24 08:27:27 51°20.354 2°44.623 -999 3.437276 21.91609 -0.848668
2003-03-24 08:27:31 51°20.357 2°44.599 -999 3.437381 21.916832 -0.848668
2003-03-24 08:27:37 51°20.362 2°44.562 -999 3.437381 21.917156 -0.848668
2003-03-24 08:27:41 51°20.366 2°44.538 -999 3.43717 21.916319 -0.848668
2003-03-24 08:27:47 51°20.371 2°44.501 -999 3.43717 21.916319 -0.848668
2003-03-24 08:27:52 51°20.376 2°44.47 -999 3.43717 21.916319 -0.848668
2003-03-24 08:27:57 51°20.38 2°44.439 -999 3.43717 21.916966 -0.848668
2003-03-24 08:28:01 51°20.384 2°44.415 -999 3.43717 21.916966 -0.848668
2003-03-24 08:28:06 51°20.388 2°44.384 -999 3.43717 21.916966 -0.848668
2003-03-24 08:28:12 51°20.394 2°44.347 -999 3.437065 21.917194 -0.848668
2003-03-24 08:28:17 51°20.399 2°44.316 -999 3.437065 21.917194 -0.848668
2003-03-24 08:28:21 51°20.403 2°44.291 -999 3.437065 21.916871 -0.814958
2003-03-24 08:28:28 51°20.409 2°44.249 -999 3.437065 21.917194 -0.848668
2003-03-24 08:28:32 51°20.412 2°44.224 -999 3.437065 21.917194 -0.814958
2003-03-24 08:28:37 51°20.417 2°44.194 -999 3.436855 21.916357 -0.882377
2003-03-24 08:28:42 51°20.421 2°44.163 -999 3.43696 21.917423 -0.882377
2003-03-24 08:28:47 51°20.426 2°44.133 -999 3.43696 21.917423 -0.882377
2003-03-24 08:28:51 51°20.43 2°44.108 -999 3.436749 21.916586 -0.882377
2003-03-24 08:28:57 51°20.435 2°44.071 -999 3.436749 21.916586 -0.848668
2003-03-24 08:29:03 51°20.441 2°44.035 -999 3.436749 21.916909 -0.848668
2003-03-24 08:29:08 51°20.445 2°44.004 -999 3.436644 21.916167 -0.848668
2003-03-24 08:29:12 51°20.449 2°43.98 -999 3.436855 21.917975 -0.882377
2003-03-24 08:29:17 51°20.454 2°43.949 -999 3.436855 21.917975 -0.882377
2003-03-24 08:29:22 51°20.459 2°43.918 -999 3.436644 21.916814 -0.848668
2003-03-24 08:29:27 51°20.464 2°43.888 -999 3.436539 21.91672 -0.882377
2003-03-24 08:29:32 51°20.469 2°43.858 -999 3.436644 21.917138 -0.848668
2003-03-24 08:29:37 51°20.474 2°43.827 -999 3.436433 21.916301 -0.848668
2003-03-24 08:29:41 51°20.477 2°43.804 -999 3.436539 21.917043 -0.882377
2003-03-24 08:29:48 51°20.484 2°43.761 -999 3.436539 21.917043 -0.882377
2003-03-24 08:29:52 51°20.487 2°43.737 -999 3.436539 21.91769 -0.882377
2003-03-24 08:29:57 51°20.492 2°43.706 -999 3.436433 21.916948 -0.848668
2003-03-24 08:30:01 51°20.496 2°43.682 -999 3.436433 21.917595 -0.814958
2003-03-24 08:30:07 51°20.501 2°43.646 -999 3.436328 21.91653 -0.848668
2003-03-24 08:30:12 51°20.505 2°43.615 -999 3.436328 21.916853 -0.882377
2003-03-24 08:30:17 51°20.509 2°43.584 -999 3.436328 21.916853 -0.882377
2003-03-24 08:30:23 51°20.515 2°43.548 -999 3.436223 21.916758 -0.848668
2003-03-24 08:30:27 51°20.518 2°43.523 -999 3.436223 21.916758 -0.814958
2003-03-24 08:30:32 51°20.523 2°43.493 -999 3.436117 21.91634 -0.814958
2003-03-24 08:30:37 51°20.528 2°43.461 -999 3.436223 21.917082 -0.848668
2003-03-24 08:30:42 51°20.532 2°43.431 -999 3.436117 21.916987 -0.882377
2003-03-24 08:30:47 51°20.537 2°43.4 -999 3.436117 21.916987 -0.882377
2003-03-24 08:30:53 51°20.542 2°43.363 -999 3.436117 21.916987 -0.882377
2003-03-24 08:30:57 51°20.546 2°43.338 -999 3.436117 21.917634 -0.814958
2003-03-24 08:31:02 51°20.551 2°43.308 -999 3.436012 21.917216 -0.848668
2003-03-24 08:31:07 51°20.556 2°43.277 -999 3.435907 21.916474 -0.848668
2003-03-24 08:31:13 51°20.561 2°43.24 -999 3.436012 21.917539 -0.848668
2003-03-24 08:31:17 51°20.564 2°43.216 -999 3.436012 21.917539 -0.848668
2003-03-24 08:31:22 51°20.569 2°43.185 -999 3.435907 21.917445 -0.848668
2003-03-24 08:31:28 51°20.575 2°43.148 -999 3.435907 21.917445 -0.848668
2003-03-24 08:31:33 51°20.579 2°43.117 -999 3.435907 21.917768 -0.814958
2003-03-24 08:31:37 51°20.583 2°43.092 -999 3.435696 21.916284 -0.814958
2003-03-24 08:31:42 51°20.587 2°43.062 -999 3.435801 21.91735 -0.848668
2003-03-24 08:31:47 51°20.592 2°43.031 -999 3.435801 21.91735 -0.848668
2003-03-24 08:31:52 51°20.596 2°43 -999 3.435801 21.91735 -0.814958
2003-03-24 08:31:57 51°20.601 2°42.969 -999 3.435591 21.916836 -0.848668
2003-03-24 08:32:02 51°20.606 2°42.939 -999 3.435696 21.917579 -0.882377
2003-03-24 08:32:07 51°20.61 2°42.908 -999 3.435485 21.916418 -0.848668
2003-03-24 08:32:12 51°20.615 2°42.877 -999 3.435591 21.91716 -0.848668
2003-03-24 08:32:18 51°20.62 2°42.84 -999 3.435591 21.91716 -0.848668
2003-03-24 08:32:23 51°20.625 2°42.809 -999 3.43538 21.916323 -0.848668
2003-03-24 08:32:27 51°20.629 2°42.785 -999 3.435485 21.917065 -0.848668
2003-03-24 08:32:32 51°20.634 2°42.754 -999 3.435485 21.917065 -0.848668
2003-03-24 08:32:37 51°20.638 2°42.723 -999 3.43538 21.91697 -0.848668
2003-03-24 08:32:41 51°20.642 2°42.698 -999 3.435275 21.916551 -0.848668
2003-03-24 08:32:47 51°20.647 2°42.661 -999 3.435275 21.916551 -0.848668
2003-03-24 08:32:52 51°20.652 2°42.63 -999 3.435275 21.916551 -0.848668
2003-03-24 08:32:57 51°20.657 2°42.599 -999 3.435275 21.916875 -0.814958
2003-03-24 08:33:01 51°20.66 2°42.574 -999 3.435169 21.916457 -0.848668
2003-03-24 08:33:08 51°20.667 2°42.531 -999 3.435169 21.91678 -0.848668
2003-03-24 08:33:12 51°20.671 2°42.506 -999 3.435064 21.916362 -0.814958
2003-03-24 08:33:17 51°20.676 2°42.475 -999 3.435064 21.916362 -0.814958
2003-03-24 08:33:21 51°20.679 2°42.45 -999 3.435169 21.917428 -0.848668
2003-03-24 08:33:27 51°20.685 2°42.412 -999 3.435064 21.917009 -0.848668
2003-03-24 08:33:32 51°20.69 2°42.381 -999 3.434959 21.916591 -0.848668
2003-03-24 08:33:37 51°20.694 2°42.35 -999 3.434959 21.916914 -0.814958
2003-03-24 08:33:43 51°20.7 2°42.313 -999 3.434959 21.916914 -0.814958
2003-03-24 08:33:47 51°20.704 2°42.288 -999 3.434959 21.916914 -0.814958
2003-03-24 08:33:52 51°20.709 2°42.257 -999 3.434853 21.916496 -0.848668
2003-03-24 08:33:57 51°20.713 2°42.225 -999 3.434853 21.91682 -0.848668
2003-03-24 08:34:01 51°20.717 2°42.201 -999 3.434853 21.91682 -0.848668
2003-03-24 08:34:08 51°20.724 2°42.157 -999 3.434748 21.916401 -0.848668
2003-03-24 08:34:12 51°20.728 2°42.132 -999 3.434748 21.916725 -0.814958
2003-03-24 08:34:17 51°20.733 2°42.101 -999 3.434748 21.916725 -0.814958
2003-03-24 08:34:22 51°20.738 2°42.069 -999 3.434748 21.917048 -0.882377
2003-03-24 08:34:28 51°20.744 2°42.032 -999 3.434748 21.917048 -0.848668
2003-03-24 08:34:33 51°20.749 2°42.001 -999 3.434643 21.91663 -0.882377
2003-03-24 08:34:37 51°20.753 2°41.976 -999 3.434643 21.917277 -0.848668
2003-03-24 08:34:42 51°20.758 2°41.944 -999 3.434538 21.916859 -0.848668
2003-03-24 08:34:48 51°20.766 2°41.908 -999 3.434538 21.916859 -0.848668
2003-03-24 08:34:53 51°20.772 2°41.877 -999 3.434538 21.916859 -0.848668
2003-03-24 08:34:57 51°20.778 2°41.853 -999 3.434432 21.91644 -0.882377
2003-03-24 08:35:03 51°20.786 2°41.817 -999 3.434432 21.917088 -0.882377
2003-03-24 08:35:07 51°20.792 2°41.793 -999 3.434432 21.917088 -0.848668
2003-03-24 08:35:12 51°20.799 2°41.763 -999 3.434327 21.916345 -0.848668
2003-03-24 08:35:17 51°20.808 2°41.734 -999 3.434327 21.916345 -0.848668
2003-03-24 08:35:22 51°20.817 2°41.705 -999 3.434327 21.916993 -0.848668
2003-03-24 08:35:28 51°20.829 2°41.672 -999 3.434327 21.916669 -0.848668
2003-03-24 08:35:33 51°20.84 2°41.646 -999 3.434116 21.915832 -0.882377
2003-03-24 08:35:37 51°20.85 2°41.626 -999 3.434222 21.916898 -0.848668
2003-03-24 08:35:42 51°20.864 2°41.602 -999 3.434222 21.916898 -0.848668
2003-03-24 08:35:47 51°20.878 2°41.581 -999 3.434222 21.916898 -0.848668
2003-03-24 08:35:53 51°20.897 2°41.559 -999 3.434011 21.916061 -0.848668
2003-03-24 08:35:57 51°20.911 2°41.545 -999 3.434011 21.916385 -0.882377
2003-03-24 08:36:02 51°20.928 2°41.531 -999 3.434011 21.916708 -0.848668
2003-03-24 08:36:08 51°20.951 2°41.518 -999 3.434011 21.917356 -0.848668
2003-03-24 08:36:12 51°20.966 2°41.511 -999 3.433906 21.916938 -0.848668
2003-03-24 08:36:17 51°20.985 2°41.504 -999 3.433906 21.916938 -0.848668
2003-03-24 08:36:23 51°21.008 2°41.499 -999 3.434011 21.918004 -0.882377
2003-03-24 08:36:28 51°21.027 2°41.496 -999 3.4338 21.917167 -0.882377
2003-03-24 08:36:32 51°21.043 2°41.493 -999 3.433906 21.917909 -0.882377
2003-03-24 08:36:37 51°21.062 2°41.492 -999 3.4338 21.917491 -0.882377
2003-03-24 08:36:43 51°21.086 2°41.489 -999 3.4338 21.917815 -0.814958
2003-03-24 08:36:48 51°21.106 2°41.487 -999 3.4338 21.917815 -0.814958
2003-03-24 08:36:52 51°21.121 2°41.485 -999 3.43359 21.916005 -0.848668
2003-03-24 08:36:57 51°21.141 2°41.483 -999 3.433695 21.917072 -0.882377
2003-03-24 08:37:02 51°21.161 2°41.481 -999 3.433695 21.917396 -0.814958
2003-03-24 08:37:07 51°21.181 2°41.479 -999 3.43359 21.916653 -0.848668
2003-03-24 08:37:11 51°21.197 2°41.477 -999 3.433484 21.916558 -0.848668
2003-03-24 08:37:17 51°21.221 2°41.475 -999 3.433484 21.916558 -0.848668
2003-03-24 08:37:22 51°21.241 2°41.472 -999 3.433484 21.916882 -0.814958
2003-03-24 08:37:27 51°21.261 2°41.47 -999 3.433484 21.917206 -0.882377
2003-03-24 08:37:32 51°21.28 2°41.469 -999 3.433484 21.917206 -0.848668
2003-03-24 08:37:37 51°21.3 2°41.466 -999 3.433274 21.916045 -0.848668
2003-03-24 08:37:42 51°21.32 2°41.464 -999 3.433274 21.916369 -0.814958
2003-03-24 08:37:48 51°21.344 2°41.462 -999 3.433274 21.916369 -0.814958
2003-03-24 08:37:53 51°21.363 2°41.46 -999 3.433379 21.916788 -0.848668
2003-03-24 08:37:57 51°21.379 2°41.458 -999 3.433168 21.91595 -0.814958
2003-03-24 08:38:02 51°21.399 2°41.457 -999 3.433168 21.91595 -0.848668
2003-03-24 08:38:08 51°21.423 2°41.455 -999 3.433274 21.916693 -0.848668
2003-03-24 08:38:12 51°21.44 2°41.453 -999 3.433168 21.916598 -0.848668
2003-03-24 08:38:17 51°21.46 2°41.45 -999 3.433168 21.916598 -0.848668
2003-03-24 08:38:22 51°21.48 2°41.449 -999 3.433063 21.916179 -0.848668
2003-03-24 08:38:27 51°21.5 2°41.447 -999 3.433063 21.916503 -0.848668
2003-03-24 08:38:32 51°21.52 2°41.445 -999 3.432958 21.91576 -0.848668
2003-03-24 08:38:37 51°21.54 2°41.443 -999 3.433063 21.917151 -0.848668
2003-03-24 08:38:41 51°21.556 2°41.441 -999 3.432958 21.916732 -0.848668
2003-03-24 08:38:48 51°21.584 2°41.439 -999 3.432958 21.916732 -0.848668
2003-03-24 08:38:52 51°21.6 2°41.437 -999 3.432958 21.917057 -0.848668
2003-03-24 08:38:57 51°21.62 2°41.436 -999 3.432958 21.917057 -0.882377
2003-03-24 08:39:01 51°21.636 2°41.434 -999 3.432852 21.916638 -0.848668
2003-03-24 08:39:08 51°21.664 2°41.432 -999 3.432852 21.916638 -0.848668
2003-03-24 08:39:12 51°21.68 2°41.432 -999 3.432747 21.916219 -0.848668
2003-03-24 08:39:17 51°21.7 2°41.43 -999 3.432747 21.916219 -0.848668
2003-03-24 08:39:21 51°21.716 2°41.429 -999 3.432747 21.916543 -0.882377
2003-03-24 08:39:27 51°21.74 2°41.427 -999 3.432747 21.916867 -0.848668
2003-03-24 08:39:33 51°21.764 2°41.426 -999 3.432642 21.916124 -0.848668
2003-03-24 08:39:37 51°21.78 2°41.425 -999 3.432536 21.916029 -0.848668
2003-03-24 08:39:42 51°21.8 2°41.424 -999 3.432536 21.916029 -0.848668
2003-03-24 08:39:47 51°21.82 2°41.422 -999 3.432536 21.916029 -0.848668
2003-03-24 08:39:52 51°21.84 2°41.421 -999 3.432536 21.916678 -0.882377
2003-03-24 08:39:58 51°21.864 2°41.418 -999 3.432431 21.916259 -0.848668
2003-03-24 08:40:02 51°21.88 2°41.417 -999 3.432536 21.917002 -0.848668
2003-03-24 08:40:08 51°21.904 2°41.415 -999 3.432431 21.916583 -0.848668
2003-03-24 08:40:12 51°21.92 2°41.414 -999 3.432431 21.916907 -0.882377
2003-03-24 08:40:17 51°21.94 2°41.413 -999 3.432431 21.916907 -0.882377
2003-03-24 08:40:23 51°21.965 2°41.412 -999 3.432326 21.916488 -0.848668
2003-03-24 08:40:27 51°21.981 2°41.41 -999 3.432326 21.916812 -0.882377
2003-03-24 08:40:32 51°22.001 2°41.409 -999 3.43222 21.916393 -0.882377
2003-03-24 08:40:37 51°22.021 2°41.408 -999 3.432326 21.91746 -0.882377
2003-03-24 08:40:41 51°22.037 2°41.407 -999 3.432115 21.916299 -0.848668
2003-03-24 08:40:48 51°22.065 2°41.406 -999 3.432115 21.916299 -0.848668
2003-03-24 08:40:52 51°22.082 2°41.405 -999 3.432221 21.917366 -0.848668
2003-03-24 08:40:57 51°22.102 2°41.404 -999 3.432115 21.916623 -0.882377
2003-03-24 08:41:01 51°22.118 2°41.403 -999 3.43201 21.916204 -0.848668
2003-03-24 08:41:08 51°22.145 2°41.401 -999 3.431905 21.915785 -0.848668
2003-03-24 08:41:12 51°22.161 2°41.401 -999 3.431905 21.916109 -0.814958
2003-03-24 08:41:17 51°22.181 2°41.399 -999 3.431905 21.916109 -0.814958
2003-03-24 08:41:22 51°22.201 2°41.398 -999 3.43201 21.916852 -0.882377
2003-03-24 08:41:27 51°22.221 2°41.397 -999 3.43201 21.917501 -0.848668
2003-03-24 08:41:33 51°22.246 2°41.396 -999 3.431799 21.916014 -0.848668
2003-03-24 08:41:37 51°22.262 2°41.395 -999 3.431905 21.917082 -0.848668
2003-03-24 08:41:42 51°22.282 2°41.394 -999 3.431799 21.916663 -0.848668
2003-03-24 08:41:48 51°22.307 2°41.394 -999 3.431799 21.916663 -0.848668
2003-03-24 08:41:52 51°22.323 2°41.394 -999 3.431799 21.916663 -0.949796
2003-03-24 08:41:57 51°22.344 2°41.397 -999 3.431799 21.916663 -0.848668
2003-03-24 08:42:01 51°22.36 2°41.402 -999 3.431589 21.915501 -0.814958
2003-03-24 08:42:07 51°22.383 2°41.411 -999 3.431694 21.916568 -0.882377
2003-03-24 08:42:12 51°22.402 2°41.421 -999 3.431589 21.916149 -0.882377
2003-03-24 08:42:18 51°22.424 2°41.436 -999 3.431589 21.916149 -0.882377
2003-03-24 08:42:21 51°22.435 2°41.445 -999 3.431589 21.916798 -0.848668
2003-03-24 08:42:27 51°22.455 2°41.463 -999 3.431589 21.917122 -0.848668
2003-03-24 08:42:33 51°22.476 2°41.483 -999 3.431378 21.91596 -0.848668
2003-03-24 08:42:37 51°22.489 2°41.496 -999 3.431378 21.916608 -0.814958
2003-03-24 08:42:43 51°22.509 2°41.517 -999 3.431378 21.916608 -0.848668
2003-03-24 08:42:48 51°22.525 2°41.536 -999 3.431378 21.916608 -0.848668
2003-03-24 08:42:53 51°22.541 2°41.554 -999 3.431378 21.916932 -0.882377
2003-03-24 08:42:57 51°22.554 2°41.57 -999 3.431273 21.916513 -0.814958
2003-03-24 08:43:02 51°22.569 2°41.589 -999 3.431273 21.916838 -0.848668
2003-03-24 08:43:07 51°22.585 2°41.609 -999 3.431273 21.916838 -0.882377
2003-03-24 08:43:12 51°22.601 2°41.628 -999 3.431167 21.916094 -0.814958
2003-03-24 08:43:18 51°22.619 2°41.654 -999 3.431167 21.916094 -0.814958
2003-03-24 08:43:23 51°22.634 2°41.674 -999 3.431167 21.916743 -0.848668
2003-03-24 08:43:27 51°22.646 2°41.692 -999 3.431062 21.915675 -0.848668
2003-03-24 08:43:33 51°22.664 2°41.716 -999 3.431062 21.916648 -0.848668
2003-03-24 08:43:37 51°22.675 2°41.734 -999 3.431167 21.917392 -0.882377
2003-03-24 08:43:42 51°22.69 2°41.755 -999 3.430957 21.916229 -0.848668
2003-03-24 08:43:48 51°22.707 2°41.782 -999 3.430957 21.916229 -0.848668
2003-03-24 08:43:52 51°22.719 2°41.799 -999 3.430957 21.916554 -0.882377
2003-03-24 08:43:57 51°22.733 2°41.822 -999 3.430957 21.916554 -0.848668
2003-03-24 08:44:02 51°22.749 2°41.844 -999 3.430851 21.916135 -0.848668
2003-03-24 08:44:08 51°22.767 2°41.871 -999 3.430851 21.916135 -0.882377
2003-03-24 08:44:13 51°22.782 2°41.893 -999 3.430746 21.915716 -0.848668
2003-03-24 08:44:17 51°22.795 2°41.911 -999 3.430746 21.915716 -0.848668
2003-03-24 08:44:22 51°22.811 2°41.932 -999 3.430746 21.915391 -0.848668
2003-03-24 08:44:28 51°22.829 2°41.958 -999 3.430746 21.915391 -0.882377
2003-03-24 08:44:32 51°22.84 2°41.976 -999 3.430641 21.914972 -0.882377
2003-03-24 08:44:37 51°22.854 2°41.998 -999 3.430641 21.915621 -0.882377
2003-03-24 08:44:43 51°22.871 2°42.025 -999 3.430641 21.915945 -0.848668
2003-03-24 08:44:48 51°22.886 2°42.047 -999 3.430641 21.915945 -0.848668
2003-03-24 08:44:52 51°22.897 2°42.065 -999 3.430535 21.915526 -0.882377
2003-03-24 08:44:57 51°22.911 2°42.087 -999 3.430535 21.916175 -0.848668
2003-03-24 08:45:02 51°22.926 2°42.108 -999 3.430535 21.916175 -0.882377
2003-03-24 08:45:07 51°22.94 2°42.13 -999 3.43043 21.915756 -0.882377
2003-03-24 08:45:13 51°22.956 2°42.157 -999 3.430325 21.915013 -0.848668
2003-03-24 08:45:17 51°22.967 2°42.175 -999 3.430325 21.915013 -0.848668
2003-03-24 08:45:22 51°22.982 2°42.196 -999 3.43043 21.91608 -0.848668
2003-03-24 08:45:28 51°22.999 2°42.222 -999 3.430325 21.915337 -0.848668
2003-03-24 08:45:32 51°23.011 2°42.239 -999 3.430325 21.915661 -0.848668
2003-03-24 08:45:37 51°23.025 2°42.261 -999 3.430325 21.915661 -0.848668
2003-03-24 08:45:43 51°23.042 2°42.287 -999 3.430325 21.915661 -0.848668
2003-03-24 08:45:48 51°23.056 2°42.309 -999 3.430325 21.915661 -0.848668
2003-03-24 08:45:52 51°23.067 2°42.327 -999 3.430219 21.915242 -0.882377
2003-03-24 08:45:57 51°23.081 2°42.349 -999 3.430219 21.915891 -0.848668
2003-03-24 08:46:02 51°23.096 2°42.37 -999 3.430114 21.915472 -0.882377
2003-03-24 08:46:08 51°23.112 2°42.396 -999 3.430114 21.915472 -0.814958
2003-03-24 08:46:13 51°23.127 2°42.416 -999 3.430009 21.916026 -0.882377
2003-03-24 08:46:17 51°23.14 2°42.433 -999 3.430009 21.916026 -0.882377
2003-03-24 08:46:22 51°23.155 2°42.453 -999 3.430114 21.916121 -0.848668
2003-03-24 08:46:28 51°23.174 2°42.475 -999 3.430009 21.916351 -0.848668
2003-03-24 08:46:32 51°23.187 2°42.49 -999 3.430009 21.916026 -0.848668
2003-03-24 08:46:38 51°23.206 2°42.511 -999 3.429903 21.915283 -0.882377
2003-03-24 08:46:43 51°23.222 2°42.529 -999 3.429903 21.915607 -0.848668
2003-03-24 08:46:48 51°23.239 2°42.545 -999 3.429903 21.915607 -0.848668
2003-03-24 08:46:52 51°23.252 2°42.558 -999 3.429903 21.915607 -0.848668
2003-03-24 08:46:57 51°23.27 2°42.571 -999 3.429903 21.916256 -0.882377
2003-03-24 08:47:03 51°23.292 2°42.588 -999 3.429904 21.91658 -0.848668
2003-03-24 08:47:07 51°23.306 2°42.598 -999 3.429588 21.914674 -0.848668
2003-03-24 08:47:12 51°23.325 2°42.611 -999 3.429798 21.916486 -0.882377
2003-03-24 08:47:17 51°23.344 2°42.621 -999 3.429693 21.916067 -0.848668
2003-03-24 08:47:23 51°23.367 2°42.633 -999 3.429693 21.916067 -0.848668
2003-03-24 08:47:27 51°23.382 2°42.64 -999 3.429693 21.916067 -0.848668
2003-03-24 08:47:32 51°23.401 2°42.649 -999 3.429693 21.916391 -0.848668
2003-03-24 08:47:38 51°23.423 2°42.659 -999 3.429693 21.916391 -0.848668
2003-03-24 08:47:41 51°23.435 2°42.662 -999 3.429588 21.915648 -0.848668
2003-03-24 08:47:47 51°23.458 2°42.67 -999 3.429588 21.915648 -0.848668
2003-03-24 08:47:53 51°23.482 2°42.674 -999 3.429588 21.916297 -0.848668
2003-03-24 08:47:57 51°23.498 2°42.675 -999 3.429588 21.916297 -0.882377
2003-03-24 08:48:03 51°23.521 2°42.674 -999 3.429482 21.916851 -0.848668
2003-03-24 08:48:08 51°23.541 2°42.673 -999 3.429482 21.916526 -0.848668
2003-03-24 08:48:12 51°23.556 2°42.671 -999 3.429377 21.915458 -0.848668
2003-03-24 08:48:17 51°23.576 2°42.669 -999 3.429377 21.915458 -0.848668
2003-03-24 08:48:22 51°23.595 2°42.665 -999 3.429377 21.915783 -0.848668
2003-03-24 08:48:27 51°23.615 2°42.66 -999 3.429377 21.915458 -0.848668
2003-03-24 08:48:32 51°23.635 2°42.654 -999 3.429377 21.915783 -0.848668
2003-03-24 08:48:37 51°23.654 2°42.645 -999 3.429272 21.915364 -0.848668
2003-03-24 08:48:42 51°23.673 2°42.637 -999 3.429272 21.915688 -0.848668
2003-03-24 08:48:47 51°23.692 2°42.626 -999 3.429272 21.915688 -0.848668
2003-03-24 08:48:52 51°23.711 2°42.616 -999 3.429272 21.915688 -0.814958
2003-03-24 08:48:58 51°23.732 2°42.601 -999 3.429272 21.916013 -0.882377
2003-03-24 08:49:02 51°23.747 2°42.591 -999 3.429061 21.91485 -0.848668
2003-03-24 08:49:08 51°23.768 2°42.574 -999 3.429061 21.915823 -0.882377
2003-03-24 08:49:12 51°23.783 2°42.564 -999 3.429061 21.915174 -0.848668
2003-03-24 08:49:18 51°23.803 2°42.545 -999 3.429061 21.915174 -0.848668
2003-03-24 08:49:21 51°23.814 2°42.536 -999 3.428956 21.91508 -0.848668
2003-03-24 08:49:28 51°23.838 2°42.514 -999 3.429061 21.915823 -0.848668
2003-03-24 08:49:32 51°23.852 2°42.502 -999 3.428956 21.914755 -0.814958
2003-03-24 08:49:37 51°23.87 2°42.486 -999 3.42885 21.914985 -0.848668
2003-03-24 08:49:43 51°23.891 2°42.468 -999 3.428956 21.915404 -0.814958
2003-03-24 08:49:47 51°23.905 2°42.455 -999 3.428956 21.915404 -0.814958
2003-03-24 08:49:52 51°23.922 2°42.439 -999 3.42885 21.91531 -0.882377
2003-03-24 08:49:57 51°23.939 2°42.424 -999 3.428956 21.916378 -0.848668
2003-03-24 08:50:01 51°23.953 2°42.411 -999 3.42885 21.915959 -0.848668
2003-03-24 08:50:07 51°23.974 2°42.392 -999 3.42885 21.916283 -0.882377
2003-03-24 08:50:12 51°23.991 2°42.376 -999 3.42885 21.916608 -0.848668
2003-03-24 08:50:17 51°24.009 2°42.361 -999 3.42864 21.915445 -0.814958
2003-03-24 08:50:22 51°24.026 2°42.345 -999 3.42864 21.915445 -0.814958
2003-03-24 08:50:27 51°24.044 2°42.329 -999 3.42864 21.915445 -0.848668
2003-03-24 08:50:32 51°24.061 2°42.314 -999 3.42864 21.915445 -0.848668
2003-03-24 08:50:37 51°24.079 2°42.299 -999 3.42864 21.916094 -0.882377
2003-03-24 08:50:41 51°24.093 2°42.287 -999 3.42864 21.916419 -0.848668
2003-03-24 08:50:48 51°24.117 2°42.265 -999 3.42864 21.916419 -0.848668
2003-03-24 08:50:52 51°24.131 2°42.253 -999 3.428429 21.914931 -0.882377
2003-03-24 08:50:57 51°24.149 2°42.238 -999 3.428534 21.916 -0.882377
2003-03-24 08:51:01 51°24.162 2°42.226 -999 3.428429 21.915581 -0.882377
2003-03-24 08:51:07 51°24.183 2°42.208 -999 3.428429 21.915581 -0.848668
2003-03-24 08:51:12 51°24.201 2°42.193 -999 3.428534 21.917298 -0.882377
2003-03-24 08:51:17 51°24.219 2°42.178 -999 3.428534 21.917298 -0.882377
2003-03-24 08:51:23 51°24.241 2°42.16 -999 3.428429 21.916554 -0.848668
2003-03-24 08:51:28 51°24.258 2°42.146 -999 3.428324 21.915811 -0.848668
2003-03-24 08:51:32 51°24.272 2°42.135 -999 3.428429 21.916879 -0.848668
2003-03-24 08:51:37 51°24.29 2°42.12 -999 3.428218 21.915716 -0.882377
2003-03-24 08:51:43 51°24.311 2°42.102 -999 3.428324 21.916785 -0.848668
2003-03-24 08:51:47 51°24.325 2°42.09 -999 3.428324 21.916785 -0.848668
2003-03-24 08:51:52 51°24.342 2°42.075 -999 3.428218 21.916041 -0.814958
2003-03-24 08:51:57 51°24.36 2°42.06 -999 3.428218 21.916365 -0.848668
2003-03-24 08:52:02 51°24.377 2°42.045 -999 3.428218 21.91669 -0.848668
2003-03-24 08:52:08 51°24.398 2°42.028 -999 3.428113 21.916271 -0.848668
2003-03-24 08:52:12 51°24.412 2°42.016 -999 3.428008 21.915527 -0.848668
2003-03-24 08:52:17 51°24.429 2°42.002 -999 3.428008 21.915527 -0.848668
2003-03-24 08:52:23 51°24.451 2°41.985 -999 3.428113 21.916595 -0.882377
2003-03-24 08:52:27 51°24.465 2°41.973 -999 3.427902 21.915432 -0.882377
2003-03-24 08:52:33 51°24.487 2°41.957 -999 3.428008 21.916501 -0.882377
2003-03-24 08:52:37 51°24.501 2°41.946 -999 3.427902 21.915757 -0.848668
2003-03-24 08:52:43 51°24.522 2°41.93 -999 3.427902 21.916406 -0.882377
2003-03-24 08:52:48 51°24.54 2°41.916 -999 3.427902 21.916406 -0.882377
2003-03-24 08:52:52 51°24.553 2°41.905 -999 3.427902 21.916406 -0.882377
2003-03-24 08:52:57 51°24.571 2°41.891 -999 3.427797 21.916312 -0.848668
2003-03-24 08:53:03 51°24.592 2°41.875 -999 3.427797 21.916312 -0.848668
2003-03-24 08:53:08 51°24.609 2°41.861 -999 3.427797 21.916637 -0.848668
2003-03-24 08:53:12 51°24.624 2°41.85 -999 3.427797 21.916312 -0.848668
2003-03-24 08:53:17 51°24.641 2°41.837 -999 3.427797 21.916312 -0.848668
2003-03-24 08:53:22 51°24.659 2°41.823 -999 3.427797 21.916961 -0.848668
2003-03-24 08:53:27 51°24.677 2°41.81 -999 3.427587 21.916123 -0.848668
2003-03-24 08:53:33 51°24.698 2°41.794 -999 3.427692 21.916867 -0.848668
2003-03-24 08:53:37 51°24.713 2°41.784 -999 3.427692 21.917192 -0.848668
2003-03-24 08:53:43 51°24.734 2°41.768 -999 3.427481 21.915704 -0.848668
2003-03-24 08:53:48 51°24.752 2°41.756 -999 3.427481 21.915704 -0.848668
2003-03-24 08:53:52 51°24.767 2°41.745 -999 3.427481 21.916028 -0.848668
2003-03-24 08:53:57 51°24.785 2°41.733 -999 3.427587 21.916772 -0.848668
2003-03-24 08:54:03 51°24.807 2°41.717 -999 3.427481 21.916028 -0.882377
2003-03-24 08:54:07 51°24.822 2°41.706 -999 3.427481 21.916678 -0.848668
2003-03-24 08:54:12 51°24.84 2°41.694 -999 3.427376 21.915934 -0.848668
2003-03-24 08:54:17 51°24.858 2°41.68 -999 3.427376 21.915934 -0.848668
2003-03-24 08:54:22 51°24.875 2°41.667 -999 3.427376 21.916583 -0.848668
2003-03-24 08:54:28 51°24.897 2°41.651 -999 3.427376 21.916908 -0.848668
2003-03-24 08:54:33 51°24.915 2°41.638 -999 3.427271 21.916164 -0.848668
2003-03-24 08:54:37 51°24.929 2°41.627 -999 3.427271 21.916814 -0.848668
2003-03-24 08:54:42 51°24.947 2°41.614 -999 3.427271 21.916814 -0.848668
2003-03-24 08:54:48 51°24.969 2°41.598 -999 3.427271 21.916814 -0.848668
2003-03-24 08:54:53 51°24.987 2°41.584 -999 3.427271 21.917139 -0.848668
2003-03-24 08:54:57 51°25.001 2°41.573 -999 3.427271 21.917463 -0.882377
2003-03-24 08:55:02 51°25.019 2°41.56 -999 3.42706 21.9163 -0.848668
2003-03-24 08:55:07 51°25.037 2°41.547 -999 3.427165 21.917369 -0.814958
2003-03-24 08:55:13 51°25.058 2°41.53 -999 3.426955 21.915881 -0.848668
2003-03-24 08:55:17 51°25.073 2°41.519 -999 3.426955 21.915881 -0.848668
2003-03-24 08:55:22 51°25.091 2°41.506 -999 3.42706 21.91695 -0.848668
2003-03-24 08:55:28 51°25.112 2°41.49 -999 3.42706 21.917274 -0.882377
2003-03-24 08:55:33 51°25.13 2°41.477 -999 3.426955 21.916855 -0.814958
2003-03-24 08:55:37 51°25.144 2°41.466 -999 3.426955 21.916855 -0.814958
2003-03-24 08:55:41 51°25.159 2°41.455 -999 3.426849 21.916436 -0.848668
2003-03-24 08:55:47 51°25.18 2°41.439 -999 3.426849 21.916436 -0.848668
2003-03-24 08:55:52 51°25.198 2°41.425 -999 3.426849 21.917086 -0.848668
2003-03-24 08:55:57 51°25.216 2°41.411 -999 3.426849 21.916761 -0.848668
2003-03-24 08:56:02 51°25.234 2°41.398 -999 3.426744 21.916341 -0.882377
2003-03-24 08:56:08 51°25.256 2°41.382 -999 3.426849 21.91741 -0.848668
2003-03-24 08:56:12 51°25.27 2°41.371 -999 3.426744 21.916991 -0.848668
2003-03-24 08:56:17 51°25.289 2°41.358 -999 3.426744 21.916991 -0.848668
2003-03-24 08:56:23 51°25.311 2°41.341 -999 3.426639 21.916572 -0.848668
2003-03-24 08:56:28 51°25.329 2°41.328 -999 3.426744 21.917641 -0.848668
2003-03-24 08:56:32 51°25.343 2°41.317 -999 3.426639 21.916897 -0.848668
2003-03-24 08:56:37 51°25.361 2°41.304 28.456612 3.426533 21.916802 -0.848668
2003-03-24 08:56:42 51°25.379 2°41.29 26.397746 3.426533 21.916802 -0.848668
2003-03-24 08:56:47 51°25.396 2°41.277 26.397746 3.426533 21.916802 -0.848668
2003-03-24 08:56:52 51°25.415 2°41.263 26.492584 3.426533 21.917452 -0.882377
2003-03-24 08:56:58 51°25.437 2°41.247 26.849494 3.426533 21.917452 -0.848668
2003-03-24 08:57:03 51°25.455 2°41.234 26.731858 3.426323 21.916288 -0.814958